
<gpx xmlns="http://www.topografix.com/GPX/1/1" xmlns:gpxx="http://www.garmin.com/xmlschemas/GpxExtensions/v3" xmlns:xsi="http://www.w3.org/2001/XMLSchema-instance" version="1.1" creator="Adze - https://getadze.com/" xsi:schemaLocation="http://www.topografix.com/GPX/1/1 http://www.topografix.com/GPX/1/1/gpx.xsd http://www.garmin.com/xmlschemas/GpxExtensions/v3 http://www.garmin.com/xmlschemas/GpxExtensionsv3.xsd">
    <metadata>
        <name>Untitled Document</name>
        <time>2018-03-05T03:01:00.712Z</time>
    </metadata>
    <trk>
        <name>December 2004 - Saturday</name>
        <extensions>
            <gpxx:TrackExtension>
                <gpxx:DisplayColor>DarkRed</gpxx:DisplayColor>
            </gpxx:TrackExtension>
        </extensions>
        <trkseg>
            <trkpt lon="101.386921" lat="14.620829">
                <ele>450.515015</ele>
                <time>2004-12-11T06:27:20Z</time>
            </trkpt>
            <trkpt lon="101.386921" lat="14.620764">
                <ele>445.227661</ele>
                <time>2004-12-11T06:28:11Z</time>
            </trkpt>
            <trkpt lon="101.386857" lat="14.620743">
                <ele>429.365967</ele>
                <time>2004-12-11T06:29:47Z</time>
            </trkpt>
            <trkpt lon="101.386793" lat="14.620743">
                <ele>427.923950</ele>
                <time>2004-12-11T06:29:52Z</time>
            </trkpt>
            <trkpt lon="101.386642" lat="14.620743">
                <ele>426.962769</ele>
                <time>2004-12-11T06:29:58Z</time>
            </trkpt>
            <trkpt lon="101.385827" lat="14.620721">
                <ele>426.001343</ele>
                <time>2004-12-11T06:30:13Z</time>
            </trkpt>
            <trkpt lon="101.385484" lat="14.620743">
                <ele>425.520752</ele>
                <time>2004-12-11T06:30:19Z</time>
            </trkpt>
            <trkpt lon="101.385312" lat="14.620936">
                <ele>424.559448</ele>
                <time>2004-12-11T06:30:25Z</time>
            </trkpt>
            <trkpt lon="101.385505" lat="14.621944">
                <ele>419.272217</ele>
                <time>2004-12-11T06:30:42Z</time>
            </trkpt>
            <trkpt lon="101.385548" lat="14.622910">
                <ele>417.830200</ele>
                <time>2004-12-11T06:30:58Z</time>
            </trkpt>
            <trkpt lon="101.385591" lat="14.623296">
                <ele>417.830200</ele>
                <time>2004-12-11T06:31:10Z</time>
            </trkpt>
            <trkpt lon="101.385612" lat="14.623489">
                <ele>418.310791</ele>
                <time>2004-12-11T06:31:14Z</time>
            </trkpt>
            <trkpt lon="101.385655" lat="14.624069">
                <ele>418.310791</ele>
                <time>2004-12-11T06:31:30Z</time>
            </trkpt>
            <trkpt lon="101.385677" lat="14.624026">
                <ele>419.272217</ele>
                <time>2004-12-11T06:32:17Z</time>
            </trkpt>
            <trkpt lon="101.386020" lat="14.624047">
                <ele>418.791504</ele>
                <time>2004-12-11T06:32:28Z</time>
            </trkpt>
            <trkpt lon="101.386986" lat="14.623961">
                <ele>416.868896</ele>
                <time>2004-12-11T06:32:45Z</time>
            </trkpt>
            <trkpt lon="101.388080" lat="14.623876">
                <ele>413.984863</ele>
                <time>2004-12-11T06:33:04Z</time>
            </trkpt>
            <trkpt lon="101.388617" lat="14.623833">
                <ele>413.504272</ele>
                <time>2004-12-11T06:33:15Z</time>
            </trkpt>
            <trkpt lon="101.389346" lat="14.623790">
                <ele>412.542847</ele>
                <time>2004-12-11T06:33:31Z</time>
            </trkpt>
            <trkpt lon="101.390183" lat="14.623725">
                <ele>411.581665</ele>
                <time>2004-12-11T06:33:46Z</time>
            </trkpt>
            <trkpt lon="101.390419" lat="14.623704">
                <ele>412.062256</ele>
                <time>2004-12-11T06:33:50Z</time>
            </trkpt>
            <trkpt lon="101.390784" lat="14.623704">
                <ele>411.100952</ele>
                <time>2004-12-11T06:33:57Z</time>
            </trkpt>
            <trkpt lon="101.391664" lat="14.623897">
                <ele>411.100952</ele>
                <time>2004-12-11T06:34:14Z</time>
            </trkpt>
            <trkpt lon="101.392715" lat="14.624069">
                <ele>410.139648</ele>
                <time>2004-12-11T06:34:34Z</time>
            </trkpt>
            <trkpt lon="101.392908" lat="14.624090">
                <ele>410.620239</ele>
                <time>2004-12-11T06:34:38Z</time>
            </trkpt>
            <trkpt lon="101.393144" lat="14.624197">
                <ele>410.620239</ele>
                <time>2004-12-11T06:34:43Z</time>
            </trkpt>
            <trkpt lon="101.393380" lat="14.624648">
                <ele>412.542847</ele>
                <time>2004-12-11T06:34:57Z</time>
            </trkpt>
            <trkpt lon="101.393466" lat="14.624777">
                <ele>412.062256</ele>
                <time>2004-12-11T06:35:02Z</time>
            </trkpt>
            <trkpt lon="101.393530" lat="14.624841">
                <ele>412.062256</ele>
                <time>2004-12-11T06:35:04Z</time>
            </trkpt>
            <trkpt lon="101.393723" lat="14.625077">
                <ele>411.581665</ele>
                <time>2004-12-11T06:35:11Z</time>
            </trkpt>
            <trkpt lon="101.393723" lat="14.625292">
                <ele>411.100952</ele>
                <time>2004-12-11T06:35:16Z</time>
            </trkpt>
            <trkpt lon="101.393852" lat="14.625700">
                <ele>410.139648</ele>
                <time>2004-12-11T06:35:25Z</time>
            </trkpt>
            <trkpt lon="101.393938" lat="14.625850">
                <ele>410.139648</ele>
                <time>2004-12-11T06:35:29Z</time>
            </trkpt>
            <trkpt lon="101.394045" lat="14.625978">
                <ele>408.697632</ele>
                <time>2004-12-11T06:35:38Z</time>
            </trkpt>
            <trkpt lon="101.394174" lat="14.625914">
                <ele>407.736328</ele>
                <time>2004-12-11T06:35:49Z</time>
            </trkpt>
            <trkpt lon="101.394217" lat="14.625893">
                <ele>406.294312</ele>
                <time>2004-12-11T06:36:59Z</time>
            </trkpt>
            <trkpt lon="101.394303" lat="14.625785">
                <ele>404.852295</ele>
                <time>2004-12-11T06:37:07Z</time>
            </trkpt>
            <trkpt lon="101.394646" lat="14.625764">
                <ele>402.929688</ele>
                <time>2004-12-11T06:37:19Z</time>
            </trkpt>
            <trkpt lon="101.395161" lat="14.625764">
                <ele>401.968506</ele>
                <time>2004-12-11T06:37:29Z</time>
            </trkpt>
            <trkpt lon="101.395204" lat="14.625764">
                <ele>401.968506</ele>
                <time>2004-12-11T06:37:30Z</time>
            </trkpt>
            <trkpt lon="101.395268" lat="14.625936">
                <ele>402.449097</ele>
                <time>2004-12-11T06:37:37Z</time>
            </trkpt>
            <trkpt lon="101.395268" lat="14.626708">
                <ele>403.410400</ele>
                <time>2004-12-11T06:37:55Z</time>
            </trkpt>
            <trkpt lon="101.395268" lat="14.627330">
                <ele>404.852295</ele>
                <time>2004-12-11T06:38:09Z</time>
            </trkpt>
            <trkpt lon="101.395333" lat="14.627781">
                <ele>405.813721</ele>
                <time>2004-12-11T06:38:22Z</time>
            </trkpt>
            <trkpt lon="101.395226" lat="14.627824">
                <ele>406.774902</ele>
                <time>2004-12-11T06:38:26Z</time>
            </trkpt>
            <trkpt lon="101.394818" lat="14.627888">
                <ele>408.217041</ele>
                <time>2004-12-11T06:38:43Z</time>
            </trkpt>
            <trkpt lon="101.394560" lat="14.628124">
                <ele>409.659058</ele>
                <time>2004-12-11T06:38:58Z</time>
            </trkpt>
            <trkpt lon="101.394410" lat="14.628425">
                <ele>411.100952</ele>
                <time>2004-12-11T06:39:12Z</time>
            </trkpt>
            <trkpt lon="101.394367" lat="14.628489">
                <ele>411.100952</ele>
                <time>2004-12-11T06:39:16Z</time>
            </trkpt>
            <trkpt lon="101.394303" lat="14.628575">
                <ele>411.100952</ele>
                <time>2004-12-11T06:39:22Z</time>
            </trkpt>
            <trkpt lon="101.393874" lat="14.628510">
                <ele>413.984863</ele>
                <time>2004-12-11T06:39:43Z</time>
            </trkpt>
            <trkpt lon="101.393595" lat="14.628747">
                <ele>418.791504</ele>
                <time>2004-12-11T06:40:04Z</time>
            </trkpt>
            <trkpt lon="101.393573" lat="14.629111">
                <ele>424.078735</ele>
                <time>2004-12-11T06:40:25Z</time>
            </trkpt>
            <trkpt lon="101.393638" lat="14.629326">
                <ele>426.962769</ele>
                <time>2004-12-11T06:40:41Z</time>
            </trkpt>
            <trkpt lon="101.393809" lat="14.629519">
                <ele>431.288574</ele>
                <time>2004-12-11T06:41:00Z</time>
            </trkpt>
            <trkpt lon="101.393938" lat="14.629691">
                <ele>432.730713</ele>
                <time>2004-12-11T06:41:15Z</time>
            </trkpt>
            <trkpt lon="101.394024" lat="14.629927">
                <ele>434.653320</ele>
                <time>2004-12-11T06:41:30Z</time>
            </trkpt>
            <trkpt lon="101.394088" lat="14.630013">
                <ele>434.653320</ele>
                <time>2004-12-11T06:41:37Z</time>
            </trkpt>
            <trkpt lon="101.394174" lat="14.630013">
                <ele>435.133911</ele>
                <time>2004-12-11T06:41:49Z</time>
            </trkpt>
            <trkpt lon="101.394196" lat="14.630013">
                <ele>431.769165</ele>
                <time>2004-12-11T06:43:10Z</time>
            </trkpt>
            <trkpt lon="101.394217" lat="14.629991">
                <ele>431.769165</ele>
                <time>2004-12-11T06:43:27Z</time>
            </trkpt>
            <trkpt lon="101.394281" lat="14.629970">
                <ele>430.807983</ele>
                <time>2004-12-11T06:43:32Z</time>
            </trkpt>
            <trkpt lon="101.394410" lat="14.629905">
                <ele>429.365967</ele>
                <time>2004-12-11T06:43:46Z</time>
            </trkpt>
            <trkpt lon="101.394432" lat="14.629905">
                <ele>430.327271</ele>
                <time>2004-12-11T06:43:56Z</time>
            </trkpt>
            <trkpt lon="101.394496" lat="14.629841">
                <ele>429.365967</ele>
                <time>2004-12-11T06:44:01Z</time>
            </trkpt>
            <trkpt lon="101.394603" lat="14.629776">
                <ele>428.404663</ele>
                <time>2004-12-11T06:44:16Z</time>
            </trkpt>
            <trkpt lon="101.394818" lat="14.629605">
                <ele>427.443359</ele>
                <time>2004-12-11T06:44:34Z</time>
            </trkpt>
            <trkpt lon="101.395032" lat="14.629433">
                <ele>426.482056</ele>
                <time>2004-12-11T06:44:46Z</time>
            </trkpt>
            <trkpt lon="101.395247" lat="14.629283">
                <ele>424.078735</ele>
                <time>2004-12-11T06:44:59Z</time>
            </trkpt>
            <trkpt lon="101.395311" lat="14.629304">
                <ele>420.714111</ele>
                <time>2004-12-11T06:45:06Z</time>
            </trkpt>
            <trkpt lon="101.395333" lat="14.629283">
                <ele>419.272217</ele>
                <time>2004-12-11T06:45:09Z</time>
            </trkpt>
            <trkpt lon="101.395333" lat="14.629240">
                <ele>417.830200</ele>
                <time>2004-12-11T06:45:12Z</time>
            </trkpt>
            <trkpt lon="101.395569" lat="14.629176">
                <ele>416.868896</ele>
                <time>2004-12-11T06:45:19Z</time>
            </trkpt>
            <trkpt lon="101.396406" lat="14.628961">
                <ele>406.774902</ele>
                <time>2004-12-11T06:45:33Z</time>
            </trkpt>
            <trkpt lon="101.396620" lat="14.628897">
                <ele>405.333008</ele>
                <time>2004-12-11T06:45:36Z</time>
            </trkpt>
            <trkpt lon="101.396770" lat="14.628983">
                <ele>403.410400</ele>
                <time>2004-12-11T06:45:40Z</time>
            </trkpt>
            <trkpt lon="101.397007" lat="14.629540">
                <ele>401.968506</ele>
                <time>2004-12-11T06:45:51Z</time>
            </trkpt>
            <trkpt lon="101.397178" lat="14.629562">
                <ele>400.526489</ele>
                <time>2004-12-11T06:45:56Z</time>
            </trkpt>
            <trkpt lon="101.397243" lat="14.629540">
                <ele>399.565063</ele>
                <time>2004-12-11T06:45:59Z</time>
            </trkpt>
            <trkpt lon="101.397264" lat="14.629498">
                <ele>399.084351</ele>
                <time>2004-12-11T06:46:07Z</time>
            </trkpt>
            <trkpt lon="101.397264" lat="14.629433">
                <ele>398.603760</ele>
                <time>2004-12-11T06:46:12Z</time>
            </trkpt>
            <trkpt lon="101.397285" lat="14.629326">
                <ele>397.161743</ele>
                <time>2004-12-11T06:46:17Z</time>
            </trkpt>
            <trkpt lon="101.397243" lat="14.629133">
                <ele>396.681152</ele>
                <time>2004-12-11T06:46:27Z</time>
            </trkpt>
            <trkpt lon="101.397200" lat="14.629004">
                <ele>397.161743</ele>
                <time>2004-12-11T06:46:41Z</time>
            </trkpt>
            <trkpt lon="101.397200" lat="14.629004">
                <ele>397.161743</ele>
                <time>2004-12-11T06:46:42Z</time>
            </trkpt>
            <trkpt lon="101.397221" lat="14.628961">
                <ele>397.161743</ele>
                <time>2004-12-11T06:46:44Z</time>
            </trkpt>
            <trkpt lon="101.397693" lat="14.628875">
                <ele>393.797241</ele>
                <time>2004-12-11T06:46:54Z</time>
            </trkpt>
            <trkpt lon="101.397865" lat="14.628854">
                <ele>392.355347</ele>
                <time>2004-12-11T06:46:57Z</time>
            </trkpt>
            <trkpt lon="101.397951" lat="14.628661">
                <ele>391.393799</ele>
                <time>2004-12-11T06:47:03Z</time>
            </trkpt>
            <trkpt lon="101.397865" lat="14.628489">
                <ele>391.393799</ele>
                <time>2004-12-11T06:47:09Z</time>
            </trkpt>
            <trkpt lon="101.398036" lat="14.628425">
                <ele>389.951904</ele>
                <time>2004-12-11T06:47:17Z</time>
            </trkpt>
            <trkpt lon="101.398058" lat="14.628425">
                <ele>389.951904</ele>
                <time>2004-12-11T06:47:18Z</time>
            </trkpt>
            <trkpt lon="101.398208" lat="14.628210">
                <ele>388.990601</ele>
                <time>2004-12-11T06:47:32Z</time>
            </trkpt>
            <trkpt lon="101.398230" lat="14.628189">
                <ele>388.990601</ele>
                <time>2004-12-11T06:47:34Z</time>
            </trkpt>
            <trkpt lon="101.398273" lat="14.628146">
                <ele>388.990601</ele>
                <time>2004-12-11T06:47:39Z</time>
            </trkpt>
            <trkpt lon="101.398423" lat="14.628103">
                <ele>388.510010</ele>
                <time>2004-12-11T06:47:48Z</time>
            </trkpt>
            <trkpt lon="101.398916" lat="14.627759">
                <ele>389.471191</ele>
                <time>2004-12-11T06:48:16Z</time>
            </trkpt>
            <trkpt lon="101.399238" lat="14.627588">
                <ele>389.951904</ele>
                <time>2004-12-11T06:48:34Z</time>
            </trkpt>
            <trkpt lon="101.399324" lat="14.627523">
                <ele>389.951904</ele>
                <time>2004-12-11T06:48:47Z</time>
            </trkpt>
            <trkpt lon="101.399324" lat="14.627502">
                <ele>387.067993</ele>
                <time>2004-12-11T06:49:05Z</time>
            </trkpt>
            <trkpt lon="101.399345" lat="14.627523">
                <ele>390.432617</ele>
                <time>2004-12-11T06:49:29Z</time>
            </trkpt>
            <trkpt lon="101.399324" lat="14.627523">
                <ele>389.951904</ele>
                <time>2004-12-11T06:49:42Z</time>
            </trkpt>
            <trkpt lon="101.399367" lat="14.627523">
                <ele>389.471191</ele>
                <time>2004-12-11T06:49:57Z</time>
            </trkpt>
            <trkpt lon="101.399453" lat="14.627609">
                <ele>389.471191</ele>
                <time>2004-12-11T06:50:02Z</time>
            </trkpt>
            <trkpt lon="101.399839" lat="14.628146">
                <ele>388.990601</ele>
                <time>2004-12-11T06:50:19Z</time>
            </trkpt>
            <trkpt lon="101.400483" lat="14.629025">
                <ele>388.510010</ele>
                <time>2004-12-11T06:50:37Z</time>
            </trkpt>
            <trkpt lon="101.401298" lat="14.630291">
                <ele>386.587402</ele>
                <time>2004-12-11T06:51:00Z</time>
            </trkpt>
            <trkpt lon="101.402071" lat="14.631236">
                <ele>382.261353</ele>
                <time>2004-12-11T06:51:17Z</time>
            </trkpt>
            <trkpt lon="101.403122" lat="14.632437">
                <ele>379.858032</ele>
                <time>2004-12-11T06:51:39Z</time>
            </trkpt>
            <trkpt lon="101.403358" lat="14.632759">
                <ele>379.377441</ele>
                <time>2004-12-11T06:51:45Z</time>
            </trkpt>
            <trkpt lon="101.403186" lat="14.633081">
                <ele>377.454834</ele>
                <time>2004-12-11T06:51:51Z</time>
            </trkpt>
            <trkpt lon="101.402822" lat="14.633467">
                <ele>376.493530</ele>
                <time>2004-12-11T06:51:58Z</time>
            </trkpt>
            <trkpt lon="101.402736" lat="14.634004">
                <ele>374.570801</ele>
                <time>2004-12-11T06:52:06Z</time>
            </trkpt>
            <trkpt lon="101.402757" lat="14.634068">
                <ele>374.570801</ele>
                <time>2004-12-11T06:52:07Z</time>
            </trkpt>
            <trkpt lon="101.402972" lat="14.634454">
                <ele>373.609497</ele>
                <time>2004-12-11T06:52:16Z</time>
            </trkpt>
            <trkpt lon="101.403229" lat="14.634926">
                <ele>372.648193</ele>
                <time>2004-12-11T06:52:31Z</time>
            </trkpt>
            <trkpt lon="101.403337" lat="14.635162">
                <ele>371.686890</ele>
                <time>2004-12-11T06:52:37Z</time>
            </trkpt>
            <trkpt lon="101.403508" lat="14.636042">
                <ele>367.360962</ele>
                <time>2004-12-11T06:52:51Z</time>
            </trkpt>
            <trkpt lon="101.403916" lat="14.636900">
                <ele>363.515747</ele>
                <time>2004-12-11T06:53:06Z</time>
            </trkpt>
            <trkpt lon="101.404281" lat="14.637651">
                <ele>360.631714</ele>
                <time>2004-12-11T06:53:18Z</time>
            </trkpt>
            <trkpt lon="101.404495" lat="14.637930">
                <ele>360.151123</ele>
                <time>2004-12-11T06:53:23Z</time>
            </trkpt>
            <trkpt lon="101.404796" lat="14.638166">
                <ele>360.631714</ele>
                <time>2004-12-11T06:53:28Z</time>
            </trkpt>
            <trkpt lon="101.405203" lat="14.638209">
                <ele>360.151123</ele>
                <time>2004-12-11T06:53:34Z</time>
            </trkpt>
            <trkpt lon="101.406469" lat="14.637823">
                <ele>358.228394</ele>
                <time>2004-12-11T06:53:55Z</time>
            </trkpt>
            <trkpt lon="101.407993" lat="14.637372">
                <ele>354.383179</ele>
                <time>2004-12-11T06:54:18Z</time>
            </trkpt>
            <trkpt lon="101.408808" lat="14.637158">
                <ele>352.941162</ele>
                <time>2004-12-11T06:54:31Z</time>
            </trkpt>
            <trkpt lon="101.409152" lat="14.637372">
                <ele>351.979858</ele>
                <time>2004-12-11T06:54:38Z</time>
            </trkpt>
            <trkpt lon="101.409173" lat="14.637437">
                <ele>351.979858</ele>
                <time>2004-12-11T06:54:39Z</time>
            </trkpt>
            <trkpt lon="101.409473" lat="14.638681">
                <ele>345.731323</ele>
                <time>2004-12-11T06:54:54Z</time>
            </trkpt>
            <trkpt lon="101.409688" lat="14.638789">
                <ele>344.289429</ele>
                <time>2004-12-11T06:54:58Z</time>
            </trkpt>
            <trkpt lon="101.409731" lat="14.638832">
                <ele>343.327881</ele>
                <time>2004-12-11T06:55:06Z</time>
            </trkpt>
            <trkpt lon="101.409752" lat="14.638853">
                <ele>343.808594</ele>
                <time>2004-12-11T06:55:18Z</time>
            </trkpt>
            <trkpt lon="101.409731" lat="14.638917">
                <ele>343.327881</ele>
                <time>2004-12-11T06:55:21Z</time>
            </trkpt>
            <trkpt lon="101.409538" lat="14.639647">
                <ele>340.924683</ele>
                <time>2004-12-11T06:55:33Z</time>
            </trkpt>
            <trkpt lon="101.409452" lat="14.640119">
                <ele>340.924683</ele>
                <time>2004-12-11T06:55:39Z</time>
            </trkpt>
            <trkpt lon="101.409431" lat="14.640462">
                <ele>340.924683</ele>
                <time>2004-12-11T06:55:46Z</time>
            </trkpt>
            <trkpt lon="101.409774" lat="14.640505">
                <ele>339.002075</ele>
                <time>2004-12-11T06:55:54Z</time>
            </trkpt>
            <trkpt lon="101.410954" lat="14.640548">
                <ele>334.195435</ele>
                <time>2004-12-11T06:56:11Z</time>
            </trkpt>
            <trkpt lon="101.412370" lat="14.640634">
                <ele>329.388916</ele>
                <time>2004-12-11T06:56:29Z</time>
            </trkpt>
            <trkpt lon="101.414130" lat="14.640784">
                <ele>324.582275</ele>
                <time>2004-12-11T06:56:51Z</time>
            </trkpt>
            <trkpt lon="101.415718" lat="14.640934">
                <ele>321.698364</ele>
                <time>2004-12-11T06:57:13Z</time>
            </trkpt>
            <trkpt lon="101.416769" lat="14.640913">
                <ele>320.737061</ele>
                <time>2004-12-11T06:57:29Z</time>
            </trkpt>
            <trkpt lon="101.417820" lat="14.640677">
                <ele>318.333618</ele>
                <time>2004-12-11T06:57:45Z</time>
            </trkpt>
            <trkpt lon="101.418099" lat="14.640720">
                <ele>317.372437</ele>
                <time>2004-12-11T06:57:49Z</time>
            </trkpt>
            <trkpt lon="101.419258" lat="14.640892">
                <ele>316.891724</ele>
                <time>2004-12-11T06:58:06Z</time>
            </trkpt>
            <trkpt lon="101.419387" lat="14.640870">
                <ele>316.411011</ele>
                <time>2004-12-11T06:58:08Z</time>
            </trkpt>
            <trkpt lon="101.419945" lat="14.640484">
                <ele>315.930420</ele>
                <time>2004-12-11T06:58:20Z</time>
            </trkpt>
            <trkpt lon="101.420438" lat="14.640141">
                <ele>316.891724</ele>
                <time>2004-12-11T06:58:32Z</time>
            </trkpt>
            <trkpt lon="101.420567" lat="14.639947">
                <ele>317.372437</ele>
                <time>2004-12-11T06:58:37Z</time>
            </trkpt>
            <trkpt lon="101.420760" lat="14.639432">
                <ele>318.333618</ele>
                <time>2004-12-11T06:58:48Z</time>
            </trkpt>
            <trkpt lon="101.420846" lat="14.639282">
                <ele>318.333618</ele>
                <time>2004-12-11T06:58:52Z</time>
            </trkpt>
            <trkpt lon="101.420932" lat="14.639239">
                <ele>318.333618</ele>
                <time>2004-12-11T06:58:54Z</time>
            </trkpt>
            <trkpt lon="101.421103" lat="14.639153">
                <ele>318.333618</ele>
                <time>2004-12-11T06:59:04Z</time>
            </trkpt>
            <trkpt lon="101.421232" lat="14.639132">
                <ele>318.814331</ele>
                <time>2004-12-11T06:59:32Z</time>
            </trkpt>
            <trkpt lon="101.421254" lat="14.639132">
                <ele>318.814331</ele>
                <time>2004-12-11T06:59:33Z</time>
            </trkpt>
            <trkpt lon="101.421640" lat="14.639068">
                <ele>316.411011</ele>
                <time>2004-12-11T06:59:42Z</time>
            </trkpt>
            <trkpt lon="101.422477" lat="14.639111">
                <ele>316.891724</ele>
                <time>2004-12-11T06:59:58Z</time>
            </trkpt>
            <trkpt lon="101.423249" lat="14.639175">
                <ele>317.372437</ele>
                <time>2004-12-11T07:00:17Z</time>
            </trkpt>
            <trkpt lon="101.424193" lat="14.639261">
                <ele>317.853027</ele>
                <time>2004-12-11T07:00:38Z</time>
            </trkpt>
            <trkpt lon="101.425009" lat="14.639411">
                <ele>317.372437</ele>
                <time>2004-12-11T07:01:00Z</time>
            </trkpt>
            <trkpt lon="101.425245" lat="14.639454">
                <ele>316.891724</ele>
                <time>2004-12-11T07:01:12Z</time>
            </trkpt>
            <trkpt lon="101.425266" lat="14.639454">
                <ele>318.333618</ele>
                <time>2004-12-11T07:01:40Z</time>
            </trkpt>
            <trkpt lon="101.425309" lat="14.639454">
                <ele>317.853027</ele>
                <time>2004-12-11T07:01:44Z</time>
            </trkpt>
            <trkpt lon="101.425481" lat="14.639368">
                <ele>316.411011</ele>
                <time>2004-12-11T07:01:58Z</time>
            </trkpt>
            <trkpt lon="101.425674" lat="14.639111">
                <ele>316.891724</ele>
                <time>2004-12-11T07:02:13Z</time>
            </trkpt>
            <trkpt lon="101.425910" lat="14.638810">
                <ele>316.891724</ele>
                <time>2004-12-11T07:02:27Z</time>
            </trkpt>
            <trkpt lon="101.426511" lat="14.638166">
                <ele>317.853027</ele>
                <time>2004-12-11T07:02:45Z</time>
            </trkpt>
            <trkpt lon="101.427240" lat="14.637673">
                <ele>317.853027</ele>
                <time>2004-12-11T07:03:00Z</time>
            </trkpt>
            <trkpt lon="101.428077" lat="14.637372">
                <ele>317.853027</ele>
                <time>2004-12-11T07:03:17Z</time>
            </trkpt>
            <trkpt lon="101.428721" lat="14.636943">
                <ele>317.853027</ele>
                <time>2004-12-11T07:03:32Z</time>
            </trkpt>
            <trkpt lon="101.428828" lat="14.636750">
                <ele>318.333618</ele>
                <time>2004-12-11T07:03:38Z</time>
            </trkpt>
            <trkpt lon="101.428506" lat="14.636235">
                <ele>317.372437</ele>
                <time>2004-12-11T07:03:50Z</time>
            </trkpt>
            <trkpt lon="101.427948" lat="14.636085">
                <ele>317.853027</ele>
                <time>2004-12-11T07:04:00Z</time>
            </trkpt>
            <trkpt lon="101.426983" lat="14.635828">
                <ele>317.372437</ele>
                <time>2004-12-11T07:04:17Z</time>
            </trkpt>
            <trkpt lon="101.426747" lat="14.635763">
                <ele>317.853027</ele>
                <time>2004-12-11T07:04:21Z</time>
            </trkpt>
            <trkpt lon="101.425953" lat="14.635441">
                <ele>317.372437</ele>
                <time>2004-12-11T07:04:35Z</time>
            </trkpt>
            <trkpt lon="101.425781" lat="14.635270">
                <ele>317.372437</ele>
                <time>2004-12-11T07:04:39Z</time>
            </trkpt>
            <trkpt lon="101.425288" lat="14.634905">
                <ele>318.333618</ele>
                <time>2004-12-11T07:04:50Z</time>
            </trkpt>
            <trkpt lon="101.425352" lat="14.634390">
                <ele>319.295044</ele>
                <time>2004-12-11T07:05:01Z</time>
            </trkpt>
            <trkpt lon="101.425610" lat="14.633553">
                <ele>321.217773</ele>
                <time>2004-12-11T07:05:17Z</time>
            </trkpt>
            <trkpt lon="101.425824" lat="14.633017">
                <ele>322.178955</ele>
                <time>2004-12-11T07:05:28Z</time>
            </trkpt>
            <trkpt lon="101.425931" lat="14.632480">
                <ele>322.178955</ele>
                <time>2004-12-11T07:05:38Z</time>
            </trkpt>
            <trkpt lon="101.426039" lat="14.632287">
                <ele>322.178955</ele>
                <time>2004-12-11T07:05:42Z</time>
            </trkpt>
            <trkpt lon="101.426446" lat="14.631922">
                <ele>322.178955</ele>
                <time>2004-12-11T07:05:52Z</time>
            </trkpt>
            <trkpt lon="101.427305" lat="14.631643">
                <ele>322.659668</ele>
                <time>2004-12-11T07:06:10Z</time>
            </trkpt>
            <trkpt lon="101.427648" lat="14.631579">
                <ele>322.659668</ele>
                <time>2004-12-11T07:06:16Z</time>
            </trkpt>
            <trkpt lon="101.427820" lat="14.631472">
                <ele>322.178955</ele>
                <time>2004-12-11T07:06:20Z</time>
            </trkpt>
            <trkpt lon="101.428077" lat="14.631257">
                <ele>321.217773</ele>
                <time>2004-12-11T07:06:26Z</time>
            </trkpt>
            <trkpt lon="101.428292" lat="14.631193">
                <ele>321.217773</ele>
                <time>2004-12-11T07:06:31Z</time>
            </trkpt>
            <trkpt lon="101.429172" lat="14.631021">
                <ele>321.698364</ele>
                <time>2004-12-11T07:06:51Z</time>
            </trkpt>
            <trkpt lon="101.430266" lat="14.631000">
                <ele>321.217773</ele>
                <time>2004-12-11T07:07:14Z</time>
            </trkpt>
            <trkpt lon="101.430802" lat="14.630806">
                <ele>320.256348</ele>
                <time>2004-12-11T07:07:27Z</time>
            </trkpt>
            <trkpt lon="101.431060" lat="14.630399">
                <ele>320.737061</ele>
                <time>2004-12-11T07:07:40Z</time>
            </trkpt>
            <trkpt lon="101.431038" lat="14.630399">
                <ele>321.217773</ele>
                <time>2004-12-11T07:07:57Z</time>
            </trkpt>
            <trkpt lon="101.431060" lat="14.630399">
                <ele>325.062988</ele>
                <time>2004-12-11T07:09:00Z</time>
            </trkpt>
            <trkpt lon="101.431124" lat="14.630356">
                <ele>324.101562</ele>
                <time>2004-12-11T07:09:04Z</time>
            </trkpt>
            <trkpt lon="101.431618" lat="14.630184">
                <ele>322.659668</ele>
                <time>2004-12-11T07:09:19Z</time>
            </trkpt>
            <trkpt lon="101.432047" lat="14.630270">
                <ele>322.178955</ele>
                <time>2004-12-11T07:09:33Z</time>
            </trkpt>
            <trkpt lon="101.432326" lat="14.630227">
                <ele>320.256348</ele>
                <time>2004-12-11T07:09:43Z</time>
            </trkpt>
            <trkpt lon="101.432455" lat="14.630184">
                <ele>319.775635</ele>
                <time>2004-12-11T07:09:48Z</time>
            </trkpt>
            <trkpt lon="101.433034" lat="14.630206">
                <ele>320.737061</ele>
                <time>2004-12-11T07:10:03Z</time>
            </trkpt>
            <trkpt lon="101.433442" lat="14.630184">
                <ele>320.737061</ele>
                <time>2004-12-11T07:10:14Z</time>
            </trkpt>
            <trkpt lon="101.433806" lat="14.629905">
                <ele>321.698364</ele>
                <time>2004-12-11T07:10:27Z</time>
            </trkpt>
            <trkpt lon="101.433957" lat="14.629562">
                <ele>323.620972</ele>
                <time>2004-12-11T07:10:37Z</time>
            </trkpt>
            <trkpt lon="101.434000" lat="14.629498">
                <ele>324.101562</ele>
                <time>2004-12-11T07:10:39Z</time>
            </trkpt>
            <trkpt lon="101.434450" lat="14.628704">
                <ele>324.101562</ele>
                <time>2004-12-11T07:11:02Z</time>
            </trkpt>
            <trkpt lon="101.434793" lat="14.628489">
                <ele>325.062988</ele>
                <time>2004-12-11T07:11:12Z</time>
            </trkpt>
            <trkpt lon="101.435416" lat="14.628296">
                <ele>326.024170</ele>
                <time>2004-12-11T07:11:30Z</time>
            </trkpt>
            <trkpt lon="101.435823" lat="14.628210">
                <ele>325.543579</ele>
                <time>2004-12-11T07:11:40Z</time>
            </trkpt>
            <trkpt lon="101.436017" lat="14.628081">
                <ele>326.024170</ele>
                <time>2004-12-11T07:11:45Z</time>
            </trkpt>
            <trkpt lon="101.436102" lat="14.627974">
                <ele>326.504883</ele>
                <time>2004-12-11T07:11:48Z</time>
            </trkpt>
            <trkpt lon="101.436489" lat="14.627888">
                <ele>325.543579</ele>
                <time>2004-12-11T07:11:56Z</time>
            </trkpt>
            <trkpt lon="101.436682" lat="14.627910">
                <ele>325.062988</ele>
                <time>2004-12-11T07:12:00Z</time>
            </trkpt>
            <trkpt lon="101.436939" lat="14.627910">
                <ele>324.582275</ele>
                <time>2004-12-11T07:12:06Z</time>
            </trkpt>
            <trkpt lon="101.437411" lat="14.627609">
                <ele>324.101562</ele>
                <time>2004-12-11T07:12:20Z</time>
            </trkpt>
            <trkpt lon="101.437819" lat="14.626901">
                <ele>323.620972</ele>
                <time>2004-12-11T07:12:37Z</time>
            </trkpt>
            <trkpt lon="101.437926" lat="14.625978">
                <ele>324.101562</ele>
                <time>2004-12-11T07:12:55Z</time>
            </trkpt>
            <trkpt lon="101.437991" lat="14.625442">
                <ele>324.582275</ele>
                <time>2004-12-11T07:13:07Z</time>
            </trkpt>
            <trkpt lon="101.438355" lat="14.624991">
                <ele>326.024170</ele>
                <time>2004-12-11T07:13:20Z</time>
            </trkpt>
            <trkpt lon="101.438420" lat="14.624927">
                <ele>326.504883</ele>
                <time>2004-12-11T07:13:22Z</time>
            </trkpt>
            <trkpt lon="101.438913" lat="14.624262">
                <ele>326.024170</ele>
                <time>2004-12-11T07:13:38Z</time>
            </trkpt>
            <trkpt lon="101.439536" lat="14.623125">
                <ele>326.985596</ele>
                <time>2004-12-11T07:13:58Z</time>
            </trkpt>
            <trkpt lon="101.440179" lat="14.621623">
                <ele>328.427612</ele>
                <time>2004-12-11T07:14:22Z</time>
            </trkpt>
            <trkpt lon="101.440737" lat="14.620914">
                <ele>326.024170</ele>
                <time>2004-12-11T07:14:38Z</time>
            </trkpt>
            <trkpt lon="101.440780" lat="14.620872">
                <ele>326.024170</ele>
                <time>2004-12-11T07:14:39Z</time>
            </trkpt>
            <trkpt lon="101.441209" lat="14.619949">
                <ele>327.466187</ele>
                <time>2004-12-11T07:14:57Z</time>
            </trkpt>
            <trkpt lon="101.441295" lat="14.619799">
                <ele>326.985596</ele>
                <time>2004-12-11T07:15:00Z</time>
            </trkpt>
            <trkpt lon="101.441424" lat="14.619606">
                <ele>324.582275</ele>
                <time>2004-12-11T07:15:04Z</time>
            </trkpt>
            <trkpt lon="101.442196" lat="14.619305">
                <ele>324.582275</ele>
                <time>2004-12-11T07:15:19Z</time>
            </trkpt>
            <trkpt lon="101.442990" lat="14.619348">
                <ele>325.543579</ele>
                <time>2004-12-11T07:15:34Z</time>
            </trkpt>
            <trkpt lon="101.443355" lat="14.619434">
                <ele>326.504883</ele>
                <time>2004-12-11T07:15:41Z</time>
            </trkpt>
            <trkpt lon="101.443505" lat="14.619412">
                <ele>326.504883</ele>
                <time>2004-12-11T07:15:44Z</time>
            </trkpt>
            <trkpt lon="101.443784" lat="14.619219">
                <ele>326.985596</ele>
                <time>2004-12-11T07:15:50Z</time>
            </trkpt>
            <trkpt lon="101.444085" lat="14.618855">
                <ele>327.466187</ele>
                <time>2004-12-11T07:15:59Z</time>
            </trkpt>
            <trkpt lon="101.444235" lat="14.618640">
                <ele>328.908325</ele>
                <time>2004-12-11T07:16:06Z</time>
            </trkpt>
            <trkpt lon="101.444428" lat="14.618511">
                <ele>329.388916</ele>
                <time>2004-12-11T07:16:22Z</time>
            </trkpt>
            <trkpt lon="101.444557" lat="14.618297">
                <ele>332.753540</ele>
                <time>2004-12-11T07:16:45Z</time>
            </trkpt>
            <trkpt lon="101.444621" lat="14.618082">
                <ele>334.676147</ele>
                <time>2004-12-11T07:17:06Z</time>
            </trkpt>
            <trkpt lon="101.444578" lat="14.618146">
                <ele>326.985596</ele>
                <time>2004-12-11T07:19:05Z</time>
            </trkpt>
            <trkpt lon="101.444578" lat="14.618211">
                <ele>326.985596</ele>
                <time>2004-12-11T07:19:42Z</time>
            </trkpt>
            <trkpt lon="101.444321" lat="14.618533">
                <ele>329.388916</ele>
                <time>2004-12-11T07:20:02Z</time>
            </trkpt>
            <trkpt lon="101.444235" lat="14.618618">
                <ele>328.908325</ele>
                <time>2004-12-11T07:20:06Z</time>
            </trkpt>
            <trkpt lon="101.444128" lat="14.618554">
                <ele>327.946777</ele>
                <time>2004-12-11T07:20:12Z</time>
            </trkpt>
            <trkpt lon="101.443977" lat="14.618104">
                <ele>326.504883</ele>
                <time>2004-12-11T07:20:28Z</time>
            </trkpt>
            <trkpt lon="101.444278" lat="14.617567">
                <ele>326.504883</ele>
                <time>2004-12-11T07:20:46Z</time>
            </trkpt>
            <trkpt lon="101.444750" lat="14.616966">
                <ele>326.024170</ele>
                <time>2004-12-11T07:21:06Z</time>
            </trkpt>
            <trkpt lon="101.444857" lat="14.616516">
                <ele>326.024170</ele>
                <time>2004-12-11T07:21:24Z</time>
            </trkpt>
            <trkpt lon="101.444771" lat="14.616473">
                <ele>326.504883</ele>
                <time>2004-12-11T07:21:34Z</time>
            </trkpt>
            <trkpt lon="101.444793" lat="14.616301">
                <ele>327.466187</ele>
                <time>2004-12-11T07:21:43Z</time>
            </trkpt>
            <trkpt lon="101.444750" lat="14.616365">
                <ele>326.985596</ele>
                <time>2004-12-11T07:21:49Z</time>
            </trkpt>
            <trkpt lon="101.444664" lat="14.616988">
                <ele>326.985596</ele>
                <time>2004-12-11T07:22:04Z</time>
            </trkpt>
            <trkpt lon="101.444492" lat="14.617417">
                <ele>326.985596</ele>
                <time>2004-12-11T07:22:13Z</time>
            </trkpt>
            <trkpt lon="101.444085" lat="14.617760">
                <ele>325.543579</ele>
                <time>2004-12-11T07:22:26Z</time>
            </trkpt>
            <trkpt lon="101.443870" lat="14.618146">
                <ele>324.582275</ele>
                <time>2004-12-11T07:22:38Z</time>
            </trkpt>
            <trkpt lon="101.443999" lat="14.618468">
                <ele>324.582275</ele>
                <time>2004-12-11T07:22:46Z</time>
            </trkpt>
            <trkpt lon="101.444085" lat="14.618640">
                <ele>325.543579</ele>
                <time>2004-12-11T07:22:50Z</time>
            </trkpt>
            <trkpt lon="101.443999" lat="14.618855">
                <ele>325.543579</ele>
                <time>2004-12-11T07:22:56Z</time>
            </trkpt>
            <trkpt lon="101.443720" lat="14.619155">
                <ele>324.582275</ele>
                <time>2004-12-11T07:23:09Z</time>
            </trkpt>
            <trkpt lon="101.443419" lat="14.619348">
                <ele>323.620972</ele>
                <time>2004-12-11T07:23:19Z</time>
            </trkpt>
            <trkpt lon="101.443377" lat="14.619305">
                <ele>322.178955</ele>
                <time>2004-12-11T07:23:26Z</time>
            </trkpt>
            <trkpt lon="101.443334" lat="14.619284">
                <ele>322.178955</ele>
                <time>2004-12-11T07:23:29Z</time>
            </trkpt>
            <trkpt lon="101.443226" lat="14.619005">
                <ele>322.178955</ele>
                <time>2004-12-11T07:23:40Z</time>
            </trkpt>
            <trkpt lon="101.443119" lat="14.618726">
                <ele>320.256348</ele>
                <time>2004-12-11T07:24:01Z</time>
            </trkpt>
            <trkpt lon="101.443033" lat="14.618597">
                <ele>326.985596</ele>
                <time>2004-12-11T07:24:55Z</time>
            </trkpt>
            <trkpt lon="101.442883" lat="14.618361">
                <ele>330.350220</ele>
                <time>2004-12-11T07:25:07Z</time>
            </trkpt>
            <trkpt lon="101.442776" lat="14.617696">
                <ele>331.311523</ele>
                <time>2004-12-11T07:25:25Z</time>
            </trkpt>
            <trkpt lon="101.442604" lat="14.617610">
                <ele>330.350220</ele>
                <time>2004-12-11T07:25:29Z</time>
            </trkpt>
            <trkpt lon="101.442411" lat="14.617546">
                <ele>329.388916</ele>
                <time>2004-12-11T07:25:33Z</time>
            </trkpt>
            <trkpt lon="101.442089" lat="14.617567">
                <ele>328.427612</ele>
                <time>2004-12-11T07:25:40Z</time>
            </trkpt>
            <trkpt lon="101.441875" lat="14.617910">
                <ele>327.466187</ele>
                <time>2004-12-11T07:25:51Z</time>
            </trkpt>
            <trkpt lon="101.441746" lat="14.617996">
                <ele>328.427612</ele>
                <time>2004-12-11T07:25:55Z</time>
            </trkpt>
            <trkpt lon="101.441617" lat="14.617996">
                <ele>327.946777</ele>
                <time>2004-12-11T07:25:58Z</time>
            </trkpt>
            <trkpt lon="101.441059" lat="14.617846">
                <ele>326.985596</ele>
                <time>2004-12-11T07:26:10Z</time>
            </trkpt>
            <trkpt lon="101.440973" lat="14.617825">
                <ele>326.504883</ele>
                <time>2004-12-11T07:26:12Z</time>
            </trkpt>
            <trkpt lon="101.440780" lat="14.617867">
                <ele>326.504883</ele>
                <time>2004-12-11T07:26:16Z</time>
            </trkpt>
            <trkpt lon="101.440673" lat="14.617867">
                <ele>326.024170</ele>
                <time>2004-12-11T07:26:18Z</time>
            </trkpt>
            <trkpt lon="101.440179" lat="14.617696">
                <ele>324.582275</ele>
                <time>2004-12-11T07:26:28Z</time>
            </trkpt>
            <trkpt lon="101.439879" lat="14.617546">
                <ele>323.620972</ele>
                <time>2004-12-11T07:26:34Z</time>
            </trkpt>
            <trkpt lon="101.439729" lat="14.617460">
                <ele>323.140381</ele>
                <time>2004-12-11T07:26:37Z</time>
            </trkpt>
            <trkpt lon="101.439471" lat="14.617352">
                <ele>323.140381</ele>
                <time>2004-12-11T07:26:42Z</time>
            </trkpt>
            <trkpt lon="101.439364" lat="14.617310">
                <ele>323.140381</ele>
                <time>2004-12-11T07:26:44Z</time>
            </trkpt>
            <trkpt lon="101.439149" lat="14.617224">
                <ele>322.659668</ele>
                <time>2004-12-11T07:26:48Z</time>
            </trkpt>
            <trkpt lon="101.438956" lat="14.617181">
                <ele>322.659668</ele>
                <time>2004-12-11T07:26:53Z</time>
            </trkpt>
            <trkpt lon="101.438892" lat="14.617052">
                <ele>323.620972</ele>
                <time>2004-12-11T07:26:58Z</time>
            </trkpt>
            <trkpt lon="101.438699" lat="14.616601">
                <ele>325.543579</ele>
                <time>2004-12-11T07:27:12Z</time>
            </trkpt>
            <trkpt lon="101.439021" lat="14.616473">
                <ele>325.062988</ele>
                <time>2004-12-11T07:27:22Z</time>
            </trkpt>
            <trkpt lon="101.439171" lat="14.616408">
                <ele>325.062988</ele>
                <time>2004-12-11T07:27:26Z</time>
            </trkpt>
            <trkpt lon="101.439600" lat="14.616258">
                <ele>325.543579</ele>
                <time>2004-12-11T07:27:37Z</time>
            </trkpt>
            <trkpt lon="101.439471" lat="14.615958">
                <ele>323.140381</ele>
                <time>2004-12-11T07:27:47Z</time>
            </trkpt>
            <trkpt lon="101.438870" lat="14.615250">
                <ele>323.140381</ele>
                <time>2004-12-11T07:28:05Z</time>
            </trkpt>
            <trkpt lon="101.438355" lat="14.614649">
                <ele>322.178955</ele>
                <time>2004-12-11T07:28:21Z</time>
            </trkpt>
            <trkpt lon="101.437733" lat="14.613576">
                <ele>322.659668</ele>
                <time>2004-12-11T07:28:45Z</time>
            </trkpt>
            <trkpt lon="101.437647" lat="14.613447">
                <ele>323.140381</ele>
                <time>2004-12-11T07:28:48Z</time>
            </trkpt>
            <trkpt lon="101.437776" lat="14.613061">
                <ele>322.659668</ele>
                <time>2004-12-11T07:29:00Z</time>
            </trkpt>
            <trkpt lon="101.437905" lat="14.612825">
                <ele>323.620972</ele>
                <time>2004-12-11T07:29:12Z</time>
            </trkpt>
            <trkpt lon="101.437905" lat="14.612761">
                <ele>324.582275</ele>
                <time>2004-12-11T07:29:29Z</time>
            </trkpt>
            <trkpt lon="101.437883" lat="14.612739">
                <ele>324.582275</ele>
                <time>2004-12-11T07:29:30Z</time>
            </trkpt>
            <trkpt lon="101.437776" lat="14.612439">
                <ele>324.582275</ele>
                <time>2004-12-11T07:29:44Z</time>
            </trkpt>
            <trkpt lon="101.437733" lat="14.612246">
                <ele>323.620972</ele>
                <time>2004-12-11T07:30:00Z</time>
            </trkpt>
            <trkpt lon="101.437733" lat="14.612246">
                <ele>322.659668</ele>
                <time>2004-12-11T07:30:16Z</time>
            </trkpt>
            <trkpt lon="101.437733" lat="14.612181">
                <ele>323.140381</ele>
                <time>2004-12-11T07:30:20Z</time>
            </trkpt>
            <trkpt lon="101.437712" lat="14.611752">
                <ele>323.140381</ele>
                <time>2004-12-11T07:30:33Z</time>
            </trkpt>
            <trkpt lon="101.437583" lat="14.610894">
                <ele>326.024170</ele>
                <time>2004-12-11T07:30:52Z</time>
            </trkpt>
            <trkpt lon="101.437562" lat="14.610679">
                <ele>326.024170</ele>
                <time>2004-12-11T07:30:57Z</time>
            </trkpt>
            <trkpt lon="101.437819" lat="14.610529">
                <ele>326.985596</ele>
                <time>2004-12-11T07:31:06Z</time>
            </trkpt>
            <trkpt lon="101.437862" lat="14.610529">
                <ele>326.504883</ele>
                <time>2004-12-11T07:31:14Z</time>
            </trkpt>
            <trkpt lon="101.438119" lat="14.610486">
                <ele>331.311523</ele>
                <time>2004-12-11T07:31:49Z</time>
            </trkpt>
            <trkpt lon="101.438227" lat="14.610422">
                <ele>330.830933</ele>
                <time>2004-12-11T07:31:52Z</time>
            </trkpt>
            <trkpt lon="101.438270" lat="14.610186">
                <ele>328.427612</ele>
                <time>2004-12-11T07:31:58Z</time>
            </trkpt>
            <trkpt lon="101.438484" lat="14.610078">
                <ele>326.985596</ele>
                <time>2004-12-11T07:32:06Z</time>
            </trkpt>
            <trkpt lon="101.438527" lat="14.610078">
                <ele>326.985596</ele>
                <time>2004-12-11T07:32:07Z</time>
            </trkpt>
            <trkpt lon="101.438956" lat="14.610035">
                <ele>325.543579</ele>
                <time>2004-12-11T07:32:19Z</time>
            </trkpt>
            <trkpt lon="101.439064" lat="14.610014">
                <ele>325.543579</ele>
                <time>2004-12-11T07:32:23Z</time>
            </trkpt>
            <trkpt lon="101.439064" lat="14.609993">
                <ele>325.543579</ele>
                <time>2004-12-11T07:32:27Z</time>
            </trkpt>
            <trkpt lon="101.439021" lat="14.609885">
                <ele>324.582275</ele>
                <time>2004-12-11T07:32:33Z</time>
            </trkpt>
            <trkpt lon="101.439149" lat="14.609799">
                <ele>325.062988</ele>
                <time>2004-12-11T07:32:39Z</time>
            </trkpt>
            <trkpt lon="101.439364" lat="14.609756">
                <ele>325.062988</ele>
                <time>2004-12-11T07:32:44Z</time>
            </trkpt>
            <trkpt lon="101.439643" lat="14.609649">
                <ele>324.582275</ele>
                <time>2004-12-11T07:32:50Z</time>
            </trkpt>
            <trkpt lon="101.439900" lat="14.609563">
                <ele>324.582275</ele>
                <time>2004-12-11T07:32:56Z</time>
            </trkpt>
            <trkpt lon="101.440694" lat="14.609306">
                <ele>325.062988</ele>
                <time>2004-12-11T07:33:13Z</time>
            </trkpt>
            <trkpt lon="101.440995" lat="14.609199">
                <ele>325.062988</ele>
                <time>2004-12-11T07:33:20Z</time>
            </trkpt>
            <trkpt lon="101.441081" lat="14.608920">
                <ele>325.543579</ele>
                <time>2004-12-11T07:33:29Z</time>
            </trkpt>
            <trkpt lon="101.441038" lat="14.608748">
                <ele>325.062988</ele>
                <time>2004-12-11T07:33:33Z</time>
            </trkpt>
            <trkpt lon="101.440845" lat="14.608018">
                <ele>324.582275</ele>
                <time>2004-12-11T07:33:48Z</time>
            </trkpt>
            <trkpt lon="101.440587" lat="14.607053">
                <ele>325.062988</ele>
                <time>2004-12-11T07:34:07Z</time>
            </trkpt>
            <trkpt lon="101.440523" lat="14.606709">
                <ele>325.543579</ele>
                <time>2004-12-11T07:34:14Z</time>
            </trkpt>
            <trkpt lon="101.440222" lat="14.606559">
                <ele>324.582275</ele>
                <time>2004-12-11T07:34:23Z</time>
            </trkpt>
            <trkpt lon="101.439686" lat="14.606473">
                <ele>325.062988</ele>
                <time>2004-12-11T07:34:36Z</time>
            </trkpt>
            <trkpt lon="101.439557" lat="14.606473">
                <ele>325.062988</ele>
                <time>2004-12-11T07:34:39Z</time>
            </trkpt>
            <trkpt lon="101.439471" lat="14.606473">
                <ele>325.062988</ele>
                <time>2004-12-11T07:34:41Z</time>
            </trkpt>
            <trkpt lon="101.439278" lat="14.606538">
                <ele>325.543579</ele>
                <time>2004-12-11T07:34:45Z</time>
            </trkpt>
            <trkpt lon="101.438978" lat="14.606688">
                <ele>326.024170</ele>
                <time>2004-12-11T07:34:53Z</time>
            </trkpt>
            <trkpt lon="101.438141" lat="14.606924">
                <ele>327.946777</ele>
                <time>2004-12-11T07:35:14Z</time>
            </trkpt>
            <trkpt lon="101.437840" lat="14.607203">
                <ele>328.427612</ele>
                <time>2004-12-11T07:35:28Z</time>
            </trkpt>
            <trkpt lon="101.437883" lat="14.607332">
                <ele>328.427612</ele>
                <time>2004-12-11T07:35:33Z</time>
            </trkpt>
            <trkpt lon="101.437840" lat="14.607396">
                <ele>326.985596</ele>
                <time>2004-12-11T07:35:44Z</time>
            </trkpt>
            <trkpt lon="101.437776" lat="14.607439">
                <ele>327.466187</ele>
                <time>2004-12-11T07:35:57Z</time>
            </trkpt>
            <trkpt lon="101.437712" lat="14.607503">
                <ele>328.427612</ele>
                <time>2004-12-11T07:36:11Z</time>
            </trkpt>
            <trkpt lon="101.437712" lat="14.607525">
                <ele>327.946777</ele>
                <time>2004-12-11T07:36:13Z</time>
            </trkpt>
            <trkpt lon="101.437647" lat="14.607589">
                <ele>326.504883</ele>
                <time>2004-12-11T07:36:32Z</time>
            </trkpt>
            <trkpt lon="101.437604" lat="14.607654">
                <ele>326.504883</ele>
                <time>2004-12-11T07:36:46Z</time>
            </trkpt>
            <trkpt lon="101.437411" lat="14.607654">
                <ele>326.504883</ele>
                <time>2004-12-11T07:37:04Z</time>
            </trkpt>
            <trkpt lon="101.437325" lat="14.607697">
                <ele>326.985596</ele>
                <time>2004-12-11T07:37:25Z</time>
            </trkpt>
            <trkpt lon="101.437261" lat="14.607739">
                <ele>328.427612</ele>
                <time>2004-12-11T07:37:42Z</time>
            </trkpt>
            <trkpt lon="101.437240" lat="14.607761">
                <ele>329.869507</ele>
                <time>2004-12-11T07:37:47Z</time>
            </trkpt>
            <trkpt lon="101.437175" lat="14.607761">
                <ele>338.521484</ele>
                <time>2004-12-11T07:38:09Z</time>
            </trkpt>
            <trkpt lon="101.437197" lat="14.607782">
                <ele>327.466187</ele>
                <time>2004-12-11T07:38:44Z</time>
            </trkpt>
            <trkpt lon="101.437132" lat="14.607847">
                <ele>326.985596</ele>
                <time>2004-12-11T07:38:54Z</time>
            </trkpt>
            <trkpt lon="101.437068" lat="14.607868">
                <ele>326.985596</ele>
                <time>2004-12-11T07:38:58Z</time>
            </trkpt>
            <trkpt lon="101.436832" lat="14.607739">
                <ele>329.388916</ele>
                <time>2004-12-11T07:39:15Z</time>
            </trkpt>
            <trkpt lon="101.436853" lat="14.607739">
                <ele>335.156738</ele>
                <time>2004-12-11T07:39:38Z</time>
            </trkpt>
            <trkpt lon="101.436832" lat="14.607697">
                <ele>331.311523</ele>
                <time>2004-12-11T07:57:20Z</time>
            </trkpt>
            <trkpt lon="101.436810" lat="14.607675">
                <ele>330.830933</ele>
                <time>2004-12-11T07:57:33Z</time>
            </trkpt>
            <trkpt lon="101.436789" lat="14.607353">
                <ele>329.869507</ele>
                <time>2004-12-11T07:57:49Z</time>
            </trkpt>
            <trkpt lon="101.436789" lat="14.607267">
                <ele>328.908325</ele>
                <time>2004-12-11T07:57:51Z</time>
            </trkpt>
            <trkpt lon="101.436810" lat="14.607182">
                <ele>329.388916</ele>
                <time>2004-12-11T07:57:53Z</time>
            </trkpt>
            <trkpt lon="101.436810" lat="14.607096">
                <ele>329.388916</ele>
                <time>2004-12-11T07:57:55Z</time>
            </trkpt>
            <trkpt lon="101.436768" lat="14.606280">
                <ele>326.985596</ele>
                <time>2004-12-11T07:58:11Z</time>
            </trkpt>
            <trkpt lon="101.436746" lat="14.606237">
                <ele>326.985596</ele>
                <time>2004-12-11T07:58:12Z</time>
            </trkpt>
            <trkpt lon="101.436682" lat="14.605594">
                <ele>327.466187</ele>
                <time>2004-12-11T07:58:28Z</time>
            </trkpt>
            <trkpt lon="101.436660" lat="14.605551">
                <ele>329.869507</ele>
                <time>2004-12-11T07:58:51Z</time>
            </trkpt>
            <trkpt lon="101.436639" lat="14.605551">
                <ele>330.350220</ele>
                <time>2004-12-11T07:59:07Z</time>
            </trkpt>
            <trkpt lon="101.436532" lat="14.605529">
                <ele>330.350220</ele>
                <time>2004-12-11T07:59:12Z</time>
            </trkpt>
            <trkpt lon="101.435738" lat="14.605465">
                <ele>330.350220</ele>
                <time>2004-12-11T07:59:29Z</time>
            </trkpt>
            <trkpt lon="101.435609" lat="14.605272">
                <ele>330.830933</ele>
                <time>2004-12-11T07:59:35Z</time>
            </trkpt>
            <trkpt lon="101.435244" lat="14.604478">
                <ele>330.830933</ele>
                <time>2004-12-11T07:59:54Z</time>
            </trkpt>
            <trkpt lon="101.435201" lat="14.604349">
                <ele>330.350220</ele>
                <time>2004-12-11T07:59:57Z</time>
            </trkpt>
            <trkpt lon="101.435158" lat="14.603362">
                <ele>331.311523</ele>
                <time>2004-12-11T08:00:19Z</time>
            </trkpt>
            <trkpt lon="101.435094" lat="14.602375">
                <ele>331.792114</ele>
                <time>2004-12-11T08:00:40Z</time>
            </trkpt>
            <trkpt lon="101.435094" lat="14.602246">
                <ele>331.792114</ele>
                <time>2004-12-11T08:00:43Z</time>
            </trkpt>
            <trkpt lon="101.434987" lat="14.601517">
                <ele>332.272827</ele>
                <time>2004-12-11T08:01:00Z</time>
            </trkpt>
            <trkpt lon="101.434922" lat="14.601173">
                <ele>332.753540</ele>
                <time>2004-12-11T08:01:08Z</time>
            </trkpt>
            <trkpt lon="101.434879" lat="14.600401">
                <ele>333.234131</ele>
                <time>2004-12-11T08:01:26Z</time>
            </trkpt>
            <trkpt lon="101.434772" lat="14.599822">
                <ele>334.195435</ele>
                <time>2004-12-11T08:01:43Z</time>
            </trkpt>
            <trkpt lon="101.434665" lat="14.599049">
                <ele>337.079468</ele>
                <time>2004-12-11T08:02:08Z</time>
            </trkpt>
            <trkpt lon="101.434622" lat="14.598985">
                <ele>339.002075</ele>
                <time>2004-12-11T08:02:15Z</time>
            </trkpt>
            <trkpt lon="101.434515" lat="14.598985">
                <ele>339.482666</ele>
                <time>2004-12-11T08:02:20Z</time>
            </trkpt>
            <trkpt lon="101.433892" lat="14.599028">
                <ele>339.482666</ele>
                <time>2004-12-11T08:02:37Z</time>
            </trkpt>
            <trkpt lon="101.433399" lat="14.598942">
                <ele>340.444092</ele>
                <time>2004-12-11T08:02:49Z</time>
            </trkpt>
            <trkpt lon="101.432819" lat="14.598749">
                <ele>342.366699</ele>
                <time>2004-12-11T08:03:05Z</time>
            </trkpt>
            <trkpt lon="101.432669" lat="14.598727">
                <ele>342.847290</ele>
                <time>2004-12-11T08:03:09Z</time>
            </trkpt>
            <trkpt lon="101.432519" lat="14.598556">
                <ele>344.289429</ele>
                <time>2004-12-11T08:03:16Z</time>
            </trkpt>
            <trkpt lon="101.432412" lat="14.597719">
                <ele>344.289429</ele>
                <time>2004-12-11T08:03:38Z</time>
            </trkpt>
            <trkpt lon="101.432326" lat="14.597118">
                <ele>345.250610</ele>
                <time>2004-12-11T08:03:53Z</time>
            </trkpt>
            <trkpt lon="101.432240" lat="14.596496">
                <ele>347.653931</ele>
                <time>2004-12-11T08:04:11Z</time>
            </trkpt>
            <trkpt lon="101.432154" lat="14.595895">
                <ele>349.576538</ele>
                <time>2004-12-11T08:04:29Z</time>
            </trkpt>
            <trkpt lon="101.432047" lat="14.595165">
                <ele>351.499146</ele>
                <time>2004-12-11T08:04:49Z</time>
            </trkpt>
            <trkpt lon="101.431961" lat="14.594522">
                <ele>354.383179</ele>
                <time>2004-12-11T08:05:08Z</time>
            </trkpt>
            <trkpt lon="101.431768" lat="14.594135">
                <ele>355.344482</ele>
                <time>2004-12-11T08:05:24Z</time>
            </trkpt>
            <trkpt lon="101.431725" lat="14.594114">
                <ele>355.825195</ele>
                <time>2004-12-11T08:05:28Z</time>
            </trkpt>
            <trkpt lon="101.431639" lat="14.594049">
                <ele>357.747803</ele>
                <time>2004-12-11T08:05:38Z</time>
            </trkpt>
            <trkpt lon="101.431596" lat="14.594028">
                <ele>359.189697</ele>
                <time>2004-12-11T08:05:49Z</time>
            </trkpt>
            <trkpt lon="101.431596" lat="14.594007">
                <ele>360.151123</ele>
                <time>2004-12-11T08:06:11Z</time>
            </trkpt>
            <trkpt lon="101.431425" lat="14.593942">
                <ele>363.996338</ele>
                <time>2004-12-11T08:06:41Z</time>
            </trkpt>
            <trkpt lon="101.430995" lat="14.593663">
                <ele>366.399536</ele>
                <time>2004-12-11T08:06:56Z</time>
            </trkpt>
            <trkpt lon="101.430674" lat="14.593256">
                <ele>367.360962</ele>
                <time>2004-12-11T08:07:14Z</time>
            </trkpt>
            <trkpt lon="101.430373" lat="14.592869">
                <ele>370.244873</ele>
                <time>2004-12-11T08:07:32Z</time>
            </trkpt>
            <trkpt lon="101.430116" lat="14.592612">
                <ele>372.648193</ele>
                <time>2004-12-11T08:07:50Z</time>
            </trkpt>
            <trkpt lon="101.429965" lat="14.592547">
                <ele>373.609497</ele>
                <time>2004-12-11T08:08:03Z</time>
            </trkpt>
            <trkpt lon="101.429815" lat="14.592462">
                <ele>376.012817</ele>
                <time>2004-12-11T08:08:16Z</time>
            </trkpt>
            <trkpt lon="101.429429" lat="14.592290">
                <ele>376.012817</ele>
                <time>2004-12-11T08:08:30Z</time>
            </trkpt>
            <trkpt lon="101.429193" lat="14.592118">
                <ele>377.454834</ele>
                <time>2004-12-11T08:08:41Z</time>
            </trkpt>
            <trkpt lon="101.428828" lat="14.591882">
                <ele>376.974243</ele>
                <time>2004-12-11T08:08:57Z</time>
            </trkpt>
            <trkpt lon="101.428378" lat="14.591517">
                <ele>378.896851</ele>
                <time>2004-12-11T08:09:13Z</time>
            </trkpt>
            <trkpt lon="101.428056" lat="14.591367">
                <ele>379.377441</ele>
                <time>2004-12-11T08:09:22Z</time>
            </trkpt>
            <trkpt lon="101.427691" lat="14.591217">
                <ele>379.377441</ele>
                <time>2004-12-11T08:09:31Z</time>
            </trkpt>
            <trkpt lon="101.427519" lat="14.591110">
                <ele>379.377441</ele>
                <time>2004-12-11T08:09:35Z</time>
            </trkpt>
            <trkpt lon="101.427176" lat="14.590831">
                <ele>380.819458</ele>
                <time>2004-12-11T08:09:47Z</time>
            </trkpt>
            <trkpt lon="101.426747" lat="14.590251">
                <ele>385.625977</ele>
                <time>2004-12-11T08:10:08Z</time>
            </trkpt>
            <trkpt lon="101.426511" lat="14.589994">
                <ele>388.990601</ele>
                <time>2004-12-11T08:10:23Z</time>
            </trkpt>
            <trkpt lon="101.426146" lat="14.589522">
                <ele>389.951904</ele>
                <time>2004-12-11T08:10:41Z</time>
            </trkpt>
            <trkpt lon="101.425889" lat="14.589179">
                <ele>391.393799</ele>
                <time>2004-12-11T08:10:57Z</time>
            </trkpt>
            <trkpt lon="101.425502" lat="14.588599">
                <ele>391.393799</ele>
                <time>2004-12-11T08:11:17Z</time>
            </trkpt>
            <trkpt lon="101.425180" lat="14.588170">
                <ele>391.874512</ele>
                <time>2004-12-11T08:11:35Z</time>
            </trkpt>
            <trkpt lon="101.424837" lat="14.587891">
                <ele>395.239136</ele>
                <time>2004-12-11T08:11:51Z</time>
            </trkpt>
            <trkpt lon="101.424365" lat="14.587483">
                <ele>397.161743</ele>
                <time>2004-12-11T08:12:14Z</time>
            </trkpt>
            <trkpt lon="101.423872" lat="14.587204">
                <ele>398.123169</ele>
                <time>2004-12-11T08:12:33Z</time>
            </trkpt>
            <trkpt lon="101.423507" lat="14.587033">
                <ele>399.084351</ele>
                <time>2004-12-11T08:12:48Z</time>
            </trkpt>
            <trkpt lon="101.423056" lat="14.586711">
                <ele>407.736328</ele>
                <time>2004-12-11T08:13:08Z</time>
            </trkpt>
            <trkpt lon="101.422863" lat="14.586303">
                <ele>406.294312</ele>
                <time>2004-12-11T08:13:25Z</time>
            </trkpt>
            <trkpt lon="101.422670" lat="14.585810">
                <ele>405.813721</ele>
                <time>2004-12-11T08:13:44Z</time>
            </trkpt>
            <trkpt lon="101.422520" lat="14.585702">
                <ele>405.813721</ele>
                <time>2004-12-11T08:13:59Z</time>
            </trkpt>
            <trkpt lon="101.422391" lat="14.585681">
                <ele>406.294312</ele>
                <time>2004-12-11T08:14:02Z</time>
            </trkpt>
            <trkpt lon="101.422133" lat="14.585445">
                <ele>405.813721</ele>
                <time>2004-12-11T08:14:16Z</time>
            </trkpt>
            <trkpt lon="101.421790" lat="14.584908">
                <ele>405.333008</ele>
                <time>2004-12-11T08:14:40Z</time>
            </trkpt>
            <trkpt lon="101.421704" lat="14.584715">
                <ele>404.371704</ele>
                <time>2004-12-11T08:14:54Z</time>
            </trkpt>
            <trkpt lon="101.421554" lat="14.584394">
                <ele>407.255615</ele>
                <time>2004-12-11T08:15:12Z</time>
            </trkpt>
            <trkpt lon="101.421297" lat="14.584050">
                <ele>415.426880</ele>
                <time>2004-12-11T08:15:32Z</time>
            </trkpt>
            <trkpt lon="101.420910" lat="14.583750">
                <ele>413.984863</ele>
                <time>2004-12-11T08:15:49Z</time>
            </trkpt>
            <trkpt lon="101.420503" lat="14.583428">
                <ele>415.426880</ele>
                <time>2004-12-11T08:16:11Z</time>
            </trkpt>
            <trkpt lon="101.420159" lat="14.583085">
                <ele>425.520752</ele>
                <time>2004-12-11T08:16:29Z</time>
            </trkpt>
            <trkpt lon="101.420052" lat="14.582956">
                <ele>428.404663</ele>
                <time>2004-12-11T08:16:38Z</time>
            </trkpt>
            <trkpt lon="101.420181" lat="14.582870">
                <ele>428.885376</ele>
                <time>2004-12-11T08:16:45Z</time>
            </trkpt>
            <trkpt lon="101.420503" lat="14.582741">
                <ele>423.598022</ele>
                <time>2004-12-11T08:16:58Z</time>
            </trkpt>
            <trkpt lon="101.420760" lat="14.582334">
                <ele>418.310791</ele>
                <time>2004-12-11T08:17:16Z</time>
            </trkpt>
            <trkpt lon="101.421125" lat="14.581926">
                <ele>420.714111</ele>
                <time>2004-12-11T08:17:34Z</time>
            </trkpt>
            <trkpt lon="101.421211" lat="14.581797">
                <ele>419.272217</ele>
                <time>2004-12-11T08:17:38Z</time>
            </trkpt>
            <trkpt lon="101.421726" lat="14.581389">
                <ele>416.388184</ele>
                <time>2004-12-11T08:17:55Z</time>
            </trkpt>
            <trkpt lon="101.421897" lat="14.581196">
                <ele>414.946167</ele>
                <time>2004-12-11T08:18:06Z</time>
            </trkpt>
            <trkpt lon="101.422112" lat="14.580810">
                <ele>413.504272</ele>
                <time>2004-12-11T08:18:20Z</time>
            </trkpt>
            <trkpt lon="101.421983" lat="14.580402">
                <ele>412.062256</ele>
                <time>2004-12-11T08:18:33Z</time>
            </trkpt>
            <trkpt lon="101.421769" lat="14.579909">
                <ele>412.542847</ele>
                <time>2004-12-11T08:18:47Z</time>
            </trkpt>
            <trkpt lon="101.421318" lat="14.579394">
                <ele>413.984863</ele>
                <time>2004-12-11T08:19:05Z</time>
            </trkpt>
            <trkpt lon="101.421082" lat="14.578943">
                <ele>414.465454</ele>
                <time>2004-12-11T08:19:19Z</time>
            </trkpt>
            <trkpt lon="101.420889" lat="14.578214">
                <ele>411.100952</ele>
                <time>2004-12-11T08:19:38Z</time>
            </trkpt>
            <trkpt lon="101.420803" lat="14.578042">
                <ele>412.542847</ele>
                <time>2004-12-11T08:19:44Z</time>
            </trkpt>
            <trkpt lon="101.420674" lat="14.578042">
                <ele>412.542847</ele>
                <time>2004-12-11T08:19:49Z</time>
            </trkpt>
            <trkpt lon="101.420052" lat="14.577978">
                <ele>413.504272</ele>
                <time>2004-12-11T08:20:07Z</time>
            </trkpt>
            <trkpt lon="101.419387" lat="14.577506">
                <ele>414.465454</ele>
                <time>2004-12-11T08:20:24Z</time>
            </trkpt>
            <trkpt lon="101.418378" lat="14.576755">
                <ele>411.581665</ele>
                <time>2004-12-11T08:20:46Z</time>
            </trkpt>
            <trkpt lon="101.417542" lat="14.576197">
                <ele>409.659058</ele>
                <time>2004-12-11T08:21:02Z</time>
            </trkpt>
            <trkpt lon="101.416533" lat="14.575596">
                <ele>407.736328</ele>
                <time>2004-12-11T08:21:21Z</time>
            </trkpt>
            <trkpt lon="101.415761" lat="14.574866">
                <ele>406.294312</ele>
                <time>2004-12-11T08:21:37Z</time>
            </trkpt>
            <trkpt lon="101.415374" lat="14.574459">
                <ele>406.294312</ele>
                <time>2004-12-11T08:21:45Z</time>
            </trkpt>
            <trkpt lon="101.415138" lat="14.574351">
                <ele>405.333008</ele>
                <time>2004-12-11T08:21:49Z</time>
            </trkpt>
            <trkpt lon="101.414044" lat="14.573944">
                <ele>402.929688</ele>
                <time>2004-12-11T08:22:07Z</time>
            </trkpt>
            <trkpt lon="101.412907" lat="14.573321">
                <ele>399.565063</ele>
                <time>2004-12-11T08:22:25Z</time>
            </trkpt>
            <trkpt lon="101.411469" lat="14.572721">
                <ele>396.681152</ele>
                <time>2004-12-11T08:22:45Z</time>
            </trkpt>
            <trkpt lon="101.411319" lat="14.572656">
                <ele>395.719849</ele>
                <time>2004-12-11T08:22:47Z</time>
            </trkpt>
            <trkpt lon="101.411040" lat="14.572484">
                <ele>394.758545</ele>
                <time>2004-12-11T08:22:51Z</time>
            </trkpt>
            <trkpt lon="101.409945" lat="14.571841">
                <ele>394.277954</ele>
                <time>2004-12-11T08:23:08Z</time>
            </trkpt>
            <trkpt lon="101.408916" lat="14.571733">
                <ele>397.161743</ele>
                <time>2004-12-11T08:23:23Z</time>
            </trkpt>
            <trkpt lon="101.408079" lat="14.571605">
                <ele>395.719849</ele>
                <time>2004-12-11T08:23:36Z</time>
            </trkpt>
            <trkpt lon="101.407971" lat="14.571583">
                <ele>395.719849</ele>
                <time>2004-12-11T08:23:38Z</time>
            </trkpt>
            <trkpt lon="101.406748" lat="14.571111">
                <ele>393.316528</ele>
                <time>2004-12-11T08:24:00Z</time>
            </trkpt>
            <trkpt lon="101.405654" lat="14.570746">
                <ele>394.277954</ele>
                <time>2004-12-11T08:24:21Z</time>
            </trkpt>
            <trkpt lon="101.404388" lat="14.570274">
                <ele>398.603760</ele>
                <time>2004-12-11T08:24:48Z</time>
            </trkpt>
            <trkpt lon="101.403208" lat="14.569716">
                <ele>397.161743</ele>
                <time>2004-12-11T08:25:11Z</time>
            </trkpt>
            <trkpt lon="101.402972" lat="14.569588">
                <ele>397.161743</ele>
                <time>2004-12-11T08:25:16Z</time>
            </trkpt>
            <trkpt lon="101.402843" lat="14.569588">
                <ele>398.123169</ele>
                <time>2004-12-11T08:25:20Z</time>
            </trkpt>
            <trkpt lon="101.402736" lat="14.569738">
                <ele>396.200562</ele>
                <time>2004-12-11T08:25:35Z</time>
            </trkpt>
            <trkpt lon="101.402757" lat="14.569781">
                <ele>395.239136</ele>
                <time>2004-12-11T08:25:51Z</time>
            </trkpt>
            <trkpt lon="101.402886" lat="14.569759">
                <ele>397.161743</ele>
                <time>2004-12-11T08:50:28Z</time>
            </trkpt>
            <trkpt lon="101.402843" lat="14.569802">
                <ele>393.316528</ele>
                <time>2004-12-11T08:52:28Z</time>
            </trkpt>
            <trkpt lon="101.402757" lat="14.569781">
                <ele>399.565063</ele>
                <time>2004-12-11T08:54:25Z</time>
            </trkpt>
            <trkpt lon="101.402435" lat="14.569910">
                <ele>398.123169</ele>
                <time>2004-12-11T08:54:37Z</time>
            </trkpt>
            <trkpt lon="101.402178" lat="14.570060">
                <ele>399.565063</ele>
                <time>2004-12-11T08:54:49Z</time>
            </trkpt>
            <trkpt lon="101.402071" lat="14.570146">
                <ele>400.045898</ele>
                <time>2004-12-11T08:54:54Z</time>
            </trkpt>
            <trkpt lon="101.401856" lat="14.570189">
                <ele>399.565063</ele>
                <time>2004-12-11T08:55:00Z</time>
            </trkpt>
            <trkpt lon="101.401083" lat="14.570854">
                <ele>400.045898</ele>
                <time>2004-12-11T08:55:23Z</time>
            </trkpt>
            <trkpt lon="101.400568" lat="14.571476">
                <ele>402.929688</ele>
                <time>2004-12-11T08:55:42Z</time>
            </trkpt>
            <trkpt lon="101.400204" lat="14.572098">
                <ele>402.449097</ele>
                <time>2004-12-11T08:55:59Z</time>
            </trkpt>
            <trkpt lon="101.399903" lat="14.572828">
                <ele>402.929688</ele>
                <time>2004-12-11T08:56:18Z</time>
            </trkpt>
            <trkpt lon="101.399646" lat="14.573836">
                <ele>404.852295</ele>
                <time>2004-12-11T08:56:42Z</time>
            </trkpt>
            <trkpt lon="101.399603" lat="14.574780">
                <ele>405.333008</ele>
                <time>2004-12-11T08:57:01Z</time>
            </trkpt>
            <trkpt lon="101.399689" lat="14.576111">
                <ele>402.449097</ele>
                <time>2004-12-11T08:57:29Z</time>
            </trkpt>
            <trkpt lon="101.399732" lat="14.577785">
                <ele>406.294312</ele>
                <time>2004-12-11T08:58:05Z</time>
            </trkpt>
            <trkpt lon="101.399753" lat="14.578857">
                <ele>408.217041</ele>
                <time>2004-12-11T08:58:28Z</time>
            </trkpt>
            <trkpt lon="101.399775" lat="14.579823">
                <ele>407.736328</ele>
                <time>2004-12-11T08:58:51Z</time>
            </trkpt>
            <trkpt lon="101.399603" lat="14.579759">
                <ele>408.697632</ele>
                <time>2004-12-11T08:58:57Z</time>
            </trkpt>
            <trkpt lon="101.399238" lat="14.579651">
                <ele>411.100952</ele>
                <time>2004-12-11T08:59:06Z</time>
            </trkpt>
            <trkpt lon="101.398530" lat="14.579415">
                <ele>414.946167</ele>
                <time>2004-12-11T08:59:25Z</time>
            </trkpt>
            <trkpt lon="101.397715" lat="14.579415">
                <ele>419.272217</ele>
                <time>2004-12-11T08:59:47Z</time>
            </trkpt>
            <trkpt lon="101.397393" lat="14.579394">
                <ele>420.714111</ele>
                <time>2004-12-11T09:00:00Z</time>
            </trkpt>
            <trkpt lon="101.397307" lat="14.579415">
                <ele>421.194824</ele>
                <time>2004-12-11T09:00:05Z</time>
            </trkpt>
            <trkpt lon="101.396835" lat="14.579566">
                <ele>422.636719</ele>
                <time>2004-12-11T09:00:20Z</time>
            </trkpt>
            <trkpt lon="101.396320" lat="14.579802">
                <ele>424.559448</ele>
                <time>2004-12-11T09:00:37Z</time>
            </trkpt>
            <trkpt lon="101.395826" lat="14.579973">
                <ele>426.962769</ele>
                <time>2004-12-11T09:00:53Z</time>
            </trkpt>
            <trkpt lon="101.395268" lat="14.580059">
                <ele>426.962769</ele>
                <time>2004-12-11T09:01:11Z</time>
            </trkpt>
            <trkpt lon="101.394732" lat="14.580252">
                <ele>430.807983</ele>
                <time>2004-12-11T09:01:30Z</time>
            </trkpt>
            <trkpt lon="101.394410" lat="14.580123">
                <ele>431.288574</ele>
                <time>2004-12-11T09:01:42Z</time>
            </trkpt>
            <trkpt lon="101.394045" lat="14.579694">
                <ele>428.885376</ele>
                <time>2004-12-11T09:01:57Z</time>
            </trkpt>
            <trkpt lon="101.393466" lat="14.579329">
                <ele>429.365967</ele>
                <time>2004-12-11T09:02:12Z</time>
            </trkpt>
            <trkpt lon="101.393123" lat="14.579201">
                <ele>429.846558</ele>
                <time>2004-12-11T09:02:25Z</time>
            </trkpt>
            <trkpt lon="101.392951" lat="14.579136">
                <ele>430.327271</ele>
                <time>2004-12-11T09:04:11Z</time>
            </trkpt>
            <trkpt lon="101.392307" lat="14.579115">
                <ele>432.730713</ele>
                <time>2004-12-11T09:04:27Z</time>
            </trkpt>
            <trkpt lon="101.391878" lat="14.579329">
                <ele>433.211304</ele>
                <time>2004-12-11T09:04:40Z</time>
            </trkpt>
            <trkpt lon="101.391170" lat="14.579651">
                <ele>433.211304</ele>
                <time>2004-12-11T09:05:00Z</time>
            </trkpt>
            <trkpt lon="101.390655" lat="14.579909">
                <ele>434.653320</ele>
                <time>2004-12-11T09:05:17Z</time>
            </trkpt>
            <trkpt lon="101.390204" lat="14.580166">
                <ele>434.653320</ele>
                <time>2004-12-11T09:05:32Z</time>
            </trkpt>
            <trkpt lon="101.389625" lat="14.580424">
                <ele>436.095215</ele>
                <time>2004-12-11T09:05:49Z</time>
            </trkpt>
            <trkpt lon="101.389024" lat="14.580574">
                <ele>438.017822</ele>
                <time>2004-12-11T09:06:05Z</time>
            </trkpt>
            <trkpt lon="101.388445" lat="14.580574">
                <ele>440.901855</ele>
                <time>2004-12-11T09:06:20Z</time>
            </trkpt>
            <trkpt lon="101.387908" lat="14.580681">
                <ele>443.305054</ele>
                <time>2004-12-11T09:06:36Z</time>
            </trkpt>
            <trkpt lon="101.387243" lat="14.580724">
                <ele>446.669678</ele>
                <time>2004-12-11T09:06:56Z</time>
            </trkpt>
            <trkpt lon="101.386642" lat="14.580703">
                <ele>450.515015</ele>
                <time>2004-12-11T09:07:15Z</time>
            </trkpt>
            <trkpt lon="101.385999" lat="14.580595">
                <ele>452.918213</ele>
                <time>2004-12-11T09:07:34Z</time>
            </trkpt>
            <trkpt lon="101.385376" lat="14.580510">
                <ele>455.321533</ele>
                <time>2004-12-11T09:07:52Z</time>
            </trkpt>
            <trkpt lon="101.384776" lat="14.580531">
                <ele>456.763550</ele>
                <time>2004-12-11T09:08:09Z</time>
            </trkpt>
            <trkpt lon="101.383982" lat="14.580553">
                <ele>456.282959</ele>
                <time>2004-12-11T09:08:28Z</time>
            </trkpt>
            <trkpt lon="101.383317" lat="14.580445">
                <ele>457.724976</ele>
                <time>2004-12-11T09:08:43Z</time>
            </trkpt>
            <trkpt lon="101.382887" lat="14.580295">
                <ele>459.166870</ele>
                <time>2004-12-11T09:08:57Z</time>
            </trkpt>
            <trkpt lon="101.382287" lat="14.580081">
                <ele>460.608765</ele>
                <time>2004-12-11T09:09:14Z</time>
            </trkpt>
            <trkpt lon="101.381364" lat="14.579759">
                <ele>459.647583</ele>
                <time>2004-12-11T09:09:33Z</time>
            </trkpt>
            <trkpt lon="101.380570" lat="14.579308">
                <ele>458.205566</ele>
                <time>2004-12-11T09:09:49Z</time>
            </trkpt>
            <trkpt lon="101.379948" lat="14.578729">
                <ele>457.724976</ele>
                <time>2004-12-11T09:10:04Z</time>
            </trkpt>
            <trkpt lon="101.379497" lat="14.577785">
                <ele>457.244263</ele>
                <time>2004-12-11T09:10:21Z</time>
            </trkpt>
            <trkpt lon="101.378918" lat="14.577076">
                <ele>456.282959</ele>
                <time>2004-12-11T09:10:34Z</time>
            </trkpt>
            <trkpt lon="101.377995" lat="14.575746">
                <ele>454.840820</ele>
                <time>2004-12-11T09:10:56Z</time>
            </trkpt>
            <trkpt lon="101.377995" lat="14.575768">
                <ele>454.360229</ele>
                <time>2004-12-11T09:11:04Z</time>
            </trkpt>
            <trkpt lon="101.378059" lat="14.575875">
                <ele>454.360229</ele>
                <time>2004-12-11T09:11:10Z</time>
            </trkpt>
            <trkpt lon="101.378081" lat="14.575918">
                <ele>454.360229</ele>
                <time>2004-12-11T09:11:12Z</time>
            </trkpt>
            <trkpt lon="101.378038" lat="14.576025">
                <ele>454.360229</ele>
                <time>2004-12-11T09:11:16Z</time>
            </trkpt>
            <trkpt lon="101.377652" lat="14.576411">
                <ele>452.918213</ele>
                <time>2004-12-11T09:11:31Z</time>
            </trkpt>
            <trkpt lon="101.377137" lat="14.576733">
                <ele>451.957031</ele>
                <time>2004-12-11T09:11:47Z</time>
            </trkpt>
            <trkpt lon="101.376879" lat="14.576776">
                <ele>451.957031</ele>
                <time>2004-12-11T09:11:54Z</time>
            </trkpt>
            <trkpt lon="101.376085" lat="14.576797">
                <ele>450.515015</ele>
                <time>2004-12-11T09:12:10Z</time>
            </trkpt>
            <trkpt lon="101.375120" lat="14.576883">
                <ele>447.630981</ele>
                <time>2004-12-11T09:12:29Z</time>
            </trkpt>
            <trkpt lon="101.374154" lat="14.576647">
                <ele>446.669678</ele>
                <time>2004-12-11T09:12:46Z</time>
            </trkpt>
            <trkpt lon="101.373854" lat="14.576690">
                <ele>445.708374</ele>
                <time>2004-12-11T09:12:51Z</time>
            </trkpt>
            <trkpt lon="101.372867" lat="14.577012">
                <ele>444.266479</ele>
                <time>2004-12-11T09:13:09Z</time>
            </trkpt>
            <trkpt lon="101.372416" lat="14.577012">
                <ele>443.785767</ele>
                <time>2004-12-11T09:13:18Z</time>
            </trkpt>
            <trkpt lon="101.372330" lat="14.577012">
                <ele>443.785767</ele>
                <time>2004-12-11T09:13:20Z</time>
            </trkpt>
            <trkpt lon="101.372223" lat="14.577012">
                <ele>443.785767</ele>
                <time>2004-12-11T09:13:22Z</time>
            </trkpt>
            <trkpt lon="101.371408" lat="14.577119">
                <ele>443.305054</ele>
                <time>2004-12-11T09:13:38Z</time>
            </trkpt>
            <trkpt lon="101.370485" lat="14.577205">
                <ele>443.305054</ele>
                <time>2004-12-11T09:13:55Z</time>
            </trkpt>
            <trkpt lon="101.369648" lat="14.577184">
                <ele>443.305054</ele>
                <time>2004-12-11T09:14:11Z</time>
            </trkpt>
            <trkpt lon="101.368790" lat="14.577141">
                <ele>445.227661</ele>
                <time>2004-12-11T09:14:29Z</time>
            </trkpt>
            <trkpt lon="101.367781" lat="14.577291">
                <ele>446.669678</ele>
                <time>2004-12-11T09:14:52Z</time>
            </trkpt>
            <trkpt lon="101.366901" lat="14.577398">
                <ele>448.592407</ele>
                <time>2004-12-11T09:15:13Z</time>
            </trkpt>
            <trkpt lon="101.366901" lat="14.577656">
                <ele>447.630981</ele>
                <time>2004-12-11T09:15:21Z</time>
            </trkpt>
            <trkpt lon="101.367331" lat="14.578493">
                <ele>447.150269</ele>
                <time>2004-12-11T09:15:41Z</time>
            </trkpt>
            <trkpt lon="101.367888" lat="14.579630">
                <ele>447.630981</ele>
                <time>2004-12-11T09:16:06Z</time>
            </trkpt>
            <trkpt lon="101.367910" lat="14.579673">
                <ele>447.630981</ele>
                <time>2004-12-11T09:16:07Z</time>
            </trkpt>
            <trkpt lon="101.367588" lat="14.579844">
                <ele>450.034424</ele>
                <time>2004-12-11T09:16:16Z</time>
            </trkpt>
            <trkpt lon="101.366987" lat="14.580166">
                <ele>450.034424</ele>
                <time>2004-12-11T09:16:31Z</time>
            </trkpt>
            <trkpt lon="101.366773" lat="14.580166">
                <ele>450.515015</ele>
                <time>2004-12-11T09:16:36Z</time>
            </trkpt>
            <trkpt lon="101.366601" lat="14.580081">
                <ele>451.476318</ele>
                <time>2004-12-11T09:16:40Z</time>
            </trkpt>
            <trkpt lon="101.366515" lat="14.579930">
                <ele>451.957031</ele>
                <time>2004-12-11T09:16:44Z</time>
            </trkpt>
            <trkpt lon="101.366386" lat="14.579587">
                <ele>450.515015</ele>
                <time>2004-12-11T09:16:52Z</time>
            </trkpt>
            <trkpt lon="101.365979" lat="14.579523">
                <ele>450.995605</ele>
                <time>2004-12-11T09:17:02Z</time>
            </trkpt>
            <trkpt lon="101.365829" lat="14.579523">
                <ele>450.995605</ele>
                <time>2004-12-11T09:17:05Z</time>
            </trkpt>
            <trkpt lon="101.365721" lat="14.579587">
                <ele>450.515015</ele>
                <time>2004-12-11T09:17:08Z</time>
            </trkpt>
            <trkpt lon="101.365657" lat="14.579651">
                <ele>450.995605</ele>
                <time>2004-12-11T09:17:10Z</time>
            </trkpt>
            <trkpt lon="101.365571" lat="14.579759">
                <ele>451.476318</ele>
                <time>2004-12-11T09:17:13Z</time>
            </trkpt>
            <trkpt lon="101.365614" lat="14.580381">
                <ele>451.476318</ele>
                <time>2004-12-11T09:17:28Z</time>
            </trkpt>
            <trkpt lon="101.365592" lat="14.580510">
                <ele>451.957031</ele>
                <time>2004-12-11T09:17:31Z</time>
            </trkpt>
            <trkpt lon="101.365163" lat="14.581068">
                <ele>451.476318</ele>
                <time>2004-12-11T09:17:46Z</time>
            </trkpt>
            <trkpt lon="101.365099" lat="14.581196">
                <ele>451.957031</ele>
                <time>2004-12-11T09:17:49Z</time>
            </trkpt>
            <trkpt lon="101.365099" lat="14.581819">
                <ele>453.879639</ele>
                <time>2004-12-11T09:18:06Z</time>
            </trkpt>
            <trkpt lon="101.365056" lat="14.582355">
                <ele>453.398926</ele>
                <time>2004-12-11T09:18:21Z</time>
            </trkpt>
            <trkpt lon="101.364970" lat="14.582870">
                <ele>452.437622</ele>
                <time>2004-12-11T09:18:35Z</time>
            </trkpt>
            <trkpt lon="101.364884" lat="14.583342">
                <ele>450.995605</ele>
                <time>2004-12-11T09:18:48Z</time>
            </trkpt>
            <trkpt lon="101.364541" lat="14.583750">
                <ele>453.879639</ele>
                <time>2004-12-11T09:19:04Z</time>
            </trkpt>
            <trkpt lon="101.364434" lat="14.584243">
                <ele>455.321533</ele>
                <time>2004-12-11T09:19:19Z</time>
            </trkpt>
            <trkpt lon="101.364348" lat="14.584672">
                <ele>457.244263</ele>
                <time>2004-12-11T09:19:33Z</time>
            </trkpt>
            <trkpt lon="101.364305" lat="14.584737">
                <ele>457.244263</ele>
                <time>2004-12-11T09:19:36Z</time>
            </trkpt>
            <trkpt lon="101.364284" lat="14.584758">
                <ele>459.166870</ele>
                <time>2004-12-11T09:19:45Z</time>
            </trkpt>
            <trkpt lon="101.364262" lat="14.584780">
                <ele>458.686157</ele>
                <time>2004-12-11T09:20:02Z</time>
            </trkpt>
            <trkpt lon="101.364219" lat="14.584951">
                <ele>460.128174</ele>
                <time>2004-12-11T09:22:27Z</time>
            </trkpt>
            <trkpt lon="101.364090" lat="14.585466">
                <ele>462.050781</ele>
                <time>2004-12-11T09:22:43Z</time>
            </trkpt>
            <trkpt lon="101.363811" lat="14.585767">
                <ele>462.050781</ele>
                <time>2004-12-11T09:22:56Z</time>
            </trkpt>
            <trkpt lon="101.363533" lat="14.585960">
                <ele>461.089478</ele>
                <time>2004-12-11T09:23:07Z</time>
            </trkpt>
            <trkpt lon="101.363254" lat="14.586496">
                <ele>458.686157</ele>
                <time>2004-12-11T09:23:28Z</time>
            </trkpt>
            <trkpt lon="101.363232" lat="14.586625">
                <ele>459.647583</ele>
                <time>2004-12-11T09:23:38Z</time>
            </trkpt>
            <trkpt lon="101.363125" lat="14.586968">
                <ele>461.089478</ele>
                <time>2004-12-11T09:23:55Z</time>
            </trkpt>
            <trkpt lon="101.362932" lat="14.587462">
                <ele>462.531372</ele>
                <time>2004-12-11T09:24:10Z</time>
            </trkpt>
            <trkpt lon="101.362889" lat="14.587398">
                <ele>461.570190</ele>
                <time>2004-12-11T09:24:17Z</time>
            </trkpt>
            <trkpt lon="101.362910" lat="14.587333">
                <ele>461.570190</ele>
                <time>2004-12-11T09:24:19Z</time>
            </trkpt>
            <trkpt lon="101.363146" lat="14.586754">
                <ele>462.050781</ele>
                <time>2004-12-11T09:24:34Z</time>
            </trkpt>
            <trkpt lon="101.363254" lat="14.586411">
                <ele>462.050781</ele>
                <time>2004-12-11T09:24:41Z</time>
            </trkpt>
            <trkpt lon="101.363211" lat="14.585938">
                <ele>460.608765</ele>
                <time>2004-12-11T09:24:50Z</time>
            </trkpt>
            <trkpt lon="101.362975" lat="14.585724">
                <ele>460.608765</ele>
                <time>2004-12-11T09:24:57Z</time>
            </trkpt>
            <trkpt lon="101.361966" lat="14.585488">
                <ele>461.570190</ele>
                <time>2004-12-11T09:25:19Z</time>
            </trkpt>
            <trkpt lon="101.361794" lat="14.585488">
                <ele>462.531372</ele>
                <time>2004-12-11T09:25:23Z</time>
            </trkpt>
            <trkpt lon="101.360958" lat="14.585574">
                <ele>462.050781</ele>
                <time>2004-12-11T09:25:41Z</time>
            </trkpt>
            <trkpt lon="101.360893" lat="14.585574">
                <ele>462.050781</ele>
                <time>2004-12-11T09:25:43Z</time>
            </trkpt>
            <trkpt lon="101.360872" lat="14.585574">
                <ele>461.570190</ele>
                <time>2004-12-11T09:25:45Z</time>
            </trkpt>
            <trkpt lon="101.360893" lat="14.585466">
                <ele>461.089478</ele>
                <time>2004-12-11T09:25:50Z</time>
            </trkpt>
            <trkpt lon="101.360807" lat="14.585402">
                <ele>460.608765</ele>
                <time>2004-12-11T09:25:54Z</time>
            </trkpt>
            <trkpt lon="101.360121" lat="14.585488">
                <ele>460.608765</ele>
                <time>2004-12-11T09:26:11Z</time>
            </trkpt>
            <trkpt lon="101.359177" lat="14.585466">
                <ele>457.244263</ele>
                <time>2004-12-11T09:26:28Z</time>
            </trkpt>
            <trkpt lon="101.358039" lat="14.585466">
                <ele>455.321533</ele>
                <time>2004-12-11T09:26:47Z</time>
            </trkpt>
            <trkpt lon="101.357009" lat="14.585552">
                <ele>453.879639</ele>
                <time>2004-12-11T09:27:05Z</time>
            </trkpt>
            <trkpt lon="101.355937" lat="14.585702">
                <ele>453.879639</ele>
                <time>2004-12-11T09:27:25Z</time>
            </trkpt>
            <trkpt lon="101.354842" lat="14.585788">
                <ele>451.957031</ele>
                <time>2004-12-11T09:27:44Z</time>
            </trkpt>
            <trkpt lon="101.353984" lat="14.585917">
                <ele>450.515015</ele>
                <time>2004-12-11T09:27:58Z</time>
            </trkpt>
            <trkpt lon="101.352932" lat="14.586132">
                <ele>448.111816</ele>
                <time>2004-12-11T09:28:16Z</time>
            </trkpt>
            <trkpt lon="101.351967" lat="14.586368">
                <ele>448.592407</ele>
                <time>2004-12-11T09:28:32Z</time>
            </trkpt>
            <trkpt lon="101.351194" lat="14.586496">
                <ele>447.150269</ele>
                <time>2004-12-11T09:28:46Z</time>
            </trkpt>
            <trkpt lon="101.350765" lat="14.586604">
                <ele>446.189087</ele>
                <time>2004-12-11T09:28:54Z</time>
            </trkpt>
            <trkpt lon="101.350615" lat="14.586711">
                <ele>446.189087</ele>
                <time>2004-12-11T09:28:57Z</time>
            </trkpt>
            <trkpt lon="101.350207" lat="14.587054">
                <ele>445.227661</ele>
                <time>2004-12-11T09:29:06Z</time>
            </trkpt>
            <trkpt lon="101.350079" lat="14.587119">
                <ele>444.747070</ele>
                <time>2004-12-11T09:29:09Z</time>
            </trkpt>
            <trkpt lon="101.349242" lat="14.587548">
                <ele>444.747070</ele>
                <time>2004-12-11T09:29:28Z</time>
            </trkpt>
            <trkpt lon="101.348512" lat="14.587913">
                <ele>443.785767</ele>
                <time>2004-12-11T09:29:44Z</time>
            </trkpt>
            <trkpt lon="101.347761" lat="14.588084">
                <ele>444.266479</ele>
                <time>2004-12-11T09:30:00Z</time>
            </trkpt>
            <trkpt lon="101.347611" lat="14.588127">
                <ele>443.305054</ele>
                <time>2004-12-11T09:30:09Z</time>
            </trkpt>
            <trkpt lon="101.347568" lat="14.588149">
                <ele>442.824463</ele>
                <time>2004-12-11T09:30:22Z</time>
            </trkpt>
            <trkpt lon="101.347568" lat="14.588149">
                <ele>442.343872</ele>
                <time>2004-12-11T09:30:26Z</time>
            </trkpt>
            <trkpt lon="101.347675" lat="14.588127">
                <ele>443.305054</ele>
                <time>2004-12-11T09:30:40Z</time>
            </trkpt>
            <trkpt lon="101.347890" lat="14.588063">
                <ele>444.266479</ele>
                <time>2004-12-11T09:32:33Z</time>
            </trkpt>
            <trkpt lon="101.348469" lat="14.587955">
                <ele>444.266479</ele>
                <time>2004-12-11T09:32:49Z</time>
            </trkpt>
            <trkpt lon="101.348705" lat="14.588256">
                <ele>443.785767</ele>
                <time>2004-12-11T09:33:04Z</time>
            </trkpt>
            <trkpt lon="101.349006" lat="14.588835">
                <ele>445.708374</ele>
                <time>2004-12-11T09:33:24Z</time>
            </trkpt>
            <trkpt lon="101.349263" lat="14.589608">
                <ele>449.072998</ele>
                <time>2004-12-11T09:33:46Z</time>
            </trkpt>
            <trkpt lon="101.349199" lat="14.590230">
                <ele>452.437622</ele>
                <time>2004-12-11T09:34:02Z</time>
            </trkpt>
            <trkpt lon="101.349134" lat="14.590938">
                <ele>453.879639</ele>
                <time>2004-12-11T09:34:19Z</time>
            </trkpt>
            <trkpt lon="101.349285" lat="14.591389">
                <ele>455.321533</ele>
                <time>2004-12-11T09:34:36Z</time>
            </trkpt>
            <trkpt lon="101.349392" lat="14.591732">
                <ele>459.647583</ele>
                <time>2004-12-11T09:34:57Z</time>
            </trkpt>
            <trkpt lon="101.349456" lat="14.592011">
                <ele>462.531372</ele>
                <time>2004-12-11T09:35:15Z</time>
            </trkpt>
            <trkpt lon="101.349521" lat="14.592247">
                <ele>464.934814</ele>
                <time>2004-12-11T09:35:30Z</time>
            </trkpt>
            <trkpt lon="101.349607" lat="14.592526">
                <ele>468.299316</ele>
                <time>2004-12-11T09:35:47Z</time>
            </trkpt>
            <trkpt lon="101.349607" lat="14.592547">
                <ele>467.338135</ele>
                <time>2004-12-11T09:36:05Z</time>
            </trkpt>
            <trkpt lon="101.349671" lat="14.592569">
                <ele>465.896118</ele>
                <time>2004-12-11T09:36:59Z</time>
            </trkpt>
            <trkpt lon="101.349864" lat="14.592462">
                <ele>468.299316</ele>
                <time>2004-12-11T09:37:10Z</time>
            </trkpt>
            <trkpt lon="101.350315" lat="14.592290">
                <ele>470.702637</ele>
                <time>2004-12-11T09:37:24Z</time>
            </trkpt>
            <trkpt lon="101.350915" lat="14.592140">
                <ele>472.625366</ele>
                <time>2004-12-11T09:37:40Z</time>
            </trkpt>
            <trkpt lon="101.351795" lat="14.591968">
                <ele>472.625366</ele>
                <time>2004-12-11T09:38:01Z</time>
            </trkpt>
            <trkpt lon="101.352267" lat="14.591839">
                <ele>472.144653</ele>
                <time>2004-12-11T09:38:11Z</time>
            </trkpt>
            <trkpt lon="101.352396" lat="14.591796">
                <ele>471.663940</ele>
                <time>2004-12-11T09:38:14Z</time>
            </trkpt>
            <trkpt lon="101.352546" lat="14.591775">
                <ele>471.663940</ele>
                <time>2004-12-11T09:38:17Z</time>
            </trkpt>
            <trkpt lon="101.352739" lat="14.591711">
                <ele>472.625366</ele>
                <time>2004-12-11T09:38:21Z</time>
            </trkpt>
            <trkpt lon="101.353147" lat="14.591796">
                <ele>473.106079</ele>
                <time>2004-12-11T09:38:34Z</time>
            </trkpt>
            <trkpt lon="101.353340" lat="14.592032">
                <ele>476.470581</ele>
                <time>2004-12-11T09:38:49Z</time>
            </trkpt>
            <trkpt lon="101.353533" lat="14.592419">
                <ele>478.393188</ele>
                <time>2004-12-11T09:39:08Z</time>
            </trkpt>
            <trkpt lon="101.353555" lat="14.592848">
                <ele>482.238525</ele>
                <time>2004-12-11T09:39:24Z</time>
            </trkpt>
            <trkpt lon="101.353340" lat="14.593363">
                <ele>479.835083</ele>
                <time>2004-12-11T09:39:39Z</time>
            </trkpt>
            <trkpt lon="101.353319" lat="14.593406">
                <ele>479.835083</ele>
                <time>2004-12-11T09:39:40Z</time>
            </trkpt>
            <trkpt lon="101.352761" lat="14.593792">
                <ele>473.586670</ele>
                <time>2004-12-11T09:39:53Z</time>
            </trkpt>
            <trkpt lon="101.352074" lat="14.594371">
                <ele>467.818726</ele>
                <time>2004-12-11T09:40:08Z</time>
            </trkpt>
            <trkpt lon="101.351323" lat="14.594736">
                <ele>462.531372</ele>
                <time>2004-12-11T09:40:19Z</time>
            </trkpt>
            <trkpt lon="101.350722" lat="14.595037">
                <ele>460.128174</ele>
                <time>2004-12-11T09:40:29Z</time>
            </trkpt>
            <trkpt lon="101.350594" lat="14.595315">
                <ele>459.647583</ele>
                <time>2004-12-11T09:40:34Z</time>
            </trkpt>
            <trkpt lon="101.350572" lat="14.595659">
                <ele>458.686157</ele>
                <time>2004-12-11T09:40:41Z</time>
            </trkpt>
            <trkpt lon="101.350551" lat="14.595723">
                <ele>458.205566</ele>
                <time>2004-12-11T09:40:43Z</time>
            </trkpt>
            <trkpt lon="101.350636" lat="14.595830">
                <ele>458.205566</ele>
                <time>2004-12-11T09:40:49Z</time>
            </trkpt>
            <trkpt lon="101.351109" lat="14.595723">
                <ele>460.608765</ele>
                <time>2004-12-11T09:41:04Z</time>
            </trkpt>
            <trkpt lon="101.351860" lat="14.595294">
                <ele>461.570190</ele>
                <time>2004-12-11T09:41:26Z</time>
            </trkpt>
            <trkpt lon="101.352675" lat="14.594865">
                <ele>460.128174</ele>
                <time>2004-12-11T09:41:49Z</time>
            </trkpt>
            <trkpt lon="101.352954" lat="14.594543">
                <ele>459.647583</ele>
                <time>2004-12-11T09:42:02Z</time>
            </trkpt>
            <trkpt lon="101.352954" lat="14.594457">
                <ele>459.647583</ele>
                <time>2004-12-11T09:42:12Z</time>
            </trkpt>
            <trkpt lon="101.352911" lat="14.594436">
                <ele>478.393188</ele>
                <time>2004-12-11T09:45:50Z</time>
            </trkpt>
            <trkpt lon="101.352954" lat="14.594414">
                <ele>476.951294</ele>
                <time>2004-12-11T09:45:54Z</time>
            </trkpt>
            <trkpt lon="101.353340" lat="14.594178">
                <ele>473.586670</ele>
                <time>2004-12-11T09:46:11Z</time>
            </trkpt>
            <trkpt lon="101.354198" lat="14.593985">
                <ele>466.376709</ele>
                <time>2004-12-11T09:46:31Z</time>
            </trkpt>
            <trkpt lon="101.354713" lat="14.593921">
                <ele>466.376709</ele>
                <time>2004-12-11T09:46:44Z</time>
            </trkpt>
            <trkpt lon="101.354692" lat="14.593642">
                <ele>466.376709</ele>
                <time>2004-12-11T09:46:57Z</time>
            </trkpt>
            <trkpt lon="101.354585" lat="14.593406">
                <ele>466.376709</ele>
                <time>2004-12-11T09:47:06Z</time>
            </trkpt>
            <trkpt lon="101.354628" lat="14.593320">
                <ele>466.857422</ele>
                <time>2004-12-11T09:47:11Z</time>
            </trkpt>
            <trkpt lon="101.354928" lat="14.593191">
                <ele>471.183350</ele>
                <time>2004-12-11T09:47:28Z</time>
            </trkpt>
            <trkpt lon="101.355207" lat="14.593062">
                <ele>475.989868</ele>
                <time>2004-12-11T09:47:45Z</time>
            </trkpt>
            <trkpt lon="101.355572" lat="14.592912">
                <ele>480.315918</ele>
                <time>2004-12-11T09:48:06Z</time>
            </trkpt>
            <trkpt lon="101.355937" lat="14.592762">
                <ele>484.641846</ele>
                <time>2004-12-11T09:48:27Z</time>
            </trkpt>
            <trkpt lon="101.356258" lat="14.592633">
                <ele>489.448364</ele>
                <time>2004-12-11T09:48:47Z</time>
            </trkpt>
            <trkpt lon="101.356623" lat="14.592483">
                <ele>494.255005</ele>
                <time>2004-12-11T09:49:09Z</time>
            </trkpt>
            <trkpt lon="101.356988" lat="14.592376">
                <ele>497.619629</ele>
                <time>2004-12-11T09:49:31Z</time>
            </trkpt>
            <trkpt lon="101.357460" lat="14.592290">
                <ele>499.542236</ele>
                <time>2004-12-11T09:49:50Z</time>
            </trkpt>
            <trkpt lon="101.358232" lat="14.592161">
                <ele>497.138916</ele>
                <time>2004-12-11T09:50:07Z</time>
            </trkpt>
            <trkpt lon="101.358876" lat="14.592032">
                <ele>497.138916</ele>
                <time>2004-12-11T09:50:23Z</time>
            </trkpt>
            <trkpt lon="101.359005" lat="14.592032">
                <ele>497.138916</ele>
                <time>2004-12-11T09:50:26Z</time>
            </trkpt>
            <trkpt lon="101.359112" lat="14.592268">
                <ele>497.138916</ele>
                <time>2004-12-11T09:50:35Z</time>
            </trkpt>
            <trkpt lon="101.359198" lat="14.592826">
                <ele>496.177734</ele>
                <time>2004-12-11T09:50:54Z</time>
            </trkpt>
            <trkpt lon="101.359155" lat="14.593105">
                <ele>496.658325</ele>
                <time>2004-12-11T09:51:06Z</time>
            </trkpt>
            <trkpt lon="101.359177" lat="14.593341">
                <ele>499.542236</ele>
                <time>2004-12-11T09:51:22Z</time>
            </trkpt>
            <trkpt lon="101.359220" lat="14.593642">
                <ele>502.426147</ele>
                <time>2004-12-11T09:51:41Z</time>
            </trkpt>
            <trkpt lon="101.359220" lat="14.593706">
                <ele>503.868164</ele>
                <time>2004-12-11T09:51:52Z</time>
            </trkpt>
            <trkpt lon="101.359220" lat="14.593921">
                <ele>506.752075</ele>
                <time>2004-12-11T09:52:11Z</time>
            </trkpt>
            <trkpt lon="101.359220" lat="14.594135">
                <ele>508.674683</ele>
                <time>2004-12-11T09:52:31Z</time>
            </trkpt>
            <trkpt lon="101.359241" lat="14.594371">
                <ele>511.078003</ele>
                <time>2004-12-11T09:52:54Z</time>
            </trkpt>
            <trkpt lon="101.359262" lat="14.594564">
                <ele>513.481445</ele>
                <time>2004-12-11T09:53:11Z</time>
            </trkpt>
            <trkpt lon="101.359284" lat="14.594800">
                <ele>517.807251</ele>
                <time>2004-12-11T09:53:31Z</time>
            </trkpt>
            <trkpt lon="101.359327" lat="14.595079">
                <ele>519.729858</ele>
                <time>2004-12-11T09:53:49Z</time>
            </trkpt>
            <trkpt lon="101.359284" lat="14.595487">
                <ele>519.729858</ele>
                <time>2004-12-11T09:54:03Z</time>
            </trkpt>
            <trkpt lon="101.359262" lat="14.595659">
                <ele>519.249268</ele>
                <time>2004-12-11T09:54:07Z</time>
            </trkpt>
            <trkpt lon="101.359477" lat="14.596367">
                <ele>518.287842</ele>
                <time>2004-12-11T09:54:28Z</time>
            </trkpt>
            <trkpt lon="101.359627" lat="14.596496">
                <ele>515.404053</ele>
                <time>2004-12-11T09:54:34Z</time>
            </trkpt>
            <trkpt lon="101.359842" lat="14.596281">
                <ele>513.962036</ele>
                <time>2004-12-11T09:54:46Z</time>
            </trkpt>
            <trkpt lon="101.359820" lat="14.595981">
                <ele>514.442627</ele>
                <time>2004-12-11T09:55:02Z</time>
            </trkpt>
            <trkpt lon="101.360013" lat="14.595702">
                <ele>514.923340</ele>
                <time>2004-12-11T09:55:17Z</time>
            </trkpt>
            <trkpt lon="101.360443" lat="14.595509">
                <ele>513.962036</ele>
                <time>2004-12-11T09:55:33Z</time>
            </trkpt>
            <trkpt lon="101.360700" lat="14.595444">
                <ele>511.558716</ele>
                <time>2004-12-11T09:55:40Z</time>
            </trkpt>
            <trkpt lon="101.360872" lat="14.595444">
                <ele>509.155396</ele>
                <time>2004-12-11T09:55:44Z</time>
            </trkpt>
            <trkpt lon="101.361086" lat="14.595530">
                <ele>506.271484</ele>
                <time>2004-12-11T09:55:48Z</time>
            </trkpt>
            <trkpt lon="101.361451" lat="14.595852">
                <ele>505.790894</ele>
                <time>2004-12-11T09:55:58Z</time>
            </trkpt>
            <trkpt lon="101.362031" lat="14.596281">
                <ele>504.829468</ele>
                <time>2004-12-11T09:56:16Z</time>
            </trkpt>
            <trkpt lon="101.362395" lat="14.596367">
                <ele>501.464844</ele>
                <time>2004-12-11T09:56:29Z</time>
            </trkpt>
            <trkpt lon="101.362545" lat="14.596345">
                <ele>500.022949</ele>
                <time>2004-12-11T09:56:41Z</time>
            </trkpt>
            <trkpt lon="101.362631" lat="14.596303">
                <ele>496.658325</ele>
                <time>2004-12-11T09:56:59Z</time>
            </trkpt>
            <trkpt lon="101.362803" lat="14.596238">
                <ele>491.370972</ele>
                <time>2004-12-11T09:57:16Z</time>
            </trkpt>
            <trkpt lon="101.362824" lat="14.596238">
                <ele>490.409790</ele>
                <time>2004-12-11T09:57:18Z</time>
            </trkpt>
            <trkpt lon="101.363018" lat="14.596195">
                <ele>485.122437</ele>
                <time>2004-12-11T09:57:33Z</time>
            </trkpt>
            <trkpt lon="101.363189" lat="14.596152">
                <ele>483.680420</ele>
                <time>2004-12-11T09:57:47Z</time>
            </trkpt>
            <trkpt lon="101.363640" lat="14.596066">
                <ele>482.719238</ele>
                <time>2004-12-11T09:58:03Z</time>
            </trkpt>
            <trkpt lon="101.364112" lat="14.595959">
                <ele>479.354492</ele>
                <time>2004-12-11T09:58:16Z</time>
            </trkpt>
            <trkpt lon="101.364906" lat="14.595788">
                <ele>471.183350</ele>
                <time>2004-12-11T09:58:32Z</time>
            </trkpt>
            <trkpt lon="101.365893" lat="14.595573">
                <ele>464.934814</ele>
                <time>2004-12-11T09:58:51Z</time>
            </trkpt>
            <trkpt lon="101.366193" lat="14.595487">
                <ele>463.012085</ele>
                <time>2004-12-11T09:58:59Z</time>
            </trkpt>
            <trkpt lon="101.366494" lat="14.595788">
                <ele>459.647583</ele>
                <time>2004-12-11T09:59:11Z</time>
            </trkpt>
            <trkpt lon="101.366665" lat="14.595916">
                <ele>458.686157</ele>
                <time>2004-12-11T09:59:16Z</time>
            </trkpt>
            <trkpt lon="101.366816" lat="14.596002">
                <ele>458.686157</ele>
                <time>2004-12-11T09:59:20Z</time>
            </trkpt>
            <trkpt lon="101.367052" lat="14.596066">
                <ele>457.724976</ele>
                <time>2004-12-11T09:59:25Z</time>
            </trkpt>
            <trkpt lon="101.367824" lat="14.596367">
                <ele>456.282959</ele>
                <time>2004-12-11T09:59:40Z</time>
            </trkpt>
            <trkpt lon="101.368811" lat="14.596689">
                <ele>454.840820</ele>
                <time>2004-12-11T09:59:57Z</time>
            </trkpt>
            <trkpt lon="101.370077" lat="14.596989">
                <ele>455.321533</ele>
                <time>2004-12-11T10:00:20Z</time>
            </trkpt>
            <trkpt lon="101.370227" lat="14.597032">
                <ele>455.802246</ele>
                <time>2004-12-11T10:00:23Z</time>
            </trkpt>
            <trkpt lon="101.370335" lat="14.597054">
                <ele>455.802246</ele>
                <time>2004-12-11T10:00:25Z</time>
            </trkpt>
            <trkpt lon="101.371150" lat="14.597204">
                <ele>457.244263</ele>
                <time>2004-12-11T10:00:45Z</time>
            </trkpt>
            <trkpt lon="101.372116" lat="14.597311">
                <ele>457.244263</ele>
                <time>2004-12-11T10:01:03Z</time>
            </trkpt>
            <trkpt lon="101.373360" lat="14.597418">
                <ele>455.802246</ele>
                <time>2004-12-11T10:01:22Z</time>
            </trkpt>
            <trkpt lon="101.374605" lat="14.597483">
                <ele>452.918213</ele>
                <time>2004-12-11T10:01:40Z</time>
            </trkpt>
            <trkpt lon="101.375849" lat="14.597547">
                <ele>450.995605</ele>
                <time>2004-12-11T10:01:58Z</time>
            </trkpt>
            <trkpt lon="101.376901" lat="14.597590">
                <ele>454.360229</ele>
                <time>2004-12-11T10:02:16Z</time>
            </trkpt>
            <trkpt lon="101.377523" lat="14.597633">
                <ele>456.763550</ele>
                <time>2004-12-11T10:02:32Z</time>
            </trkpt>
            <trkpt lon="101.378124" lat="14.597783">
                <ele>457.244263</ele>
                <time>2004-12-11T10:02:52Z</time>
            </trkpt>
            <trkpt lon="101.378810" lat="14.598019">
                <ele>454.360229</ele>
                <time>2004-12-11T10:03:06Z</time>
            </trkpt>
            <trkpt lon="101.379411" lat="14.598169">
                <ele>451.957031</ele>
                <time>2004-12-11T10:03:15Z</time>
            </trkpt>
            <trkpt lon="101.380613" lat="14.598298">
                <ele>449.072998</ele>
                <time>2004-12-11T10:03:31Z</time>
            </trkpt>
            <trkpt lon="101.381943" lat="14.598448">
                <ele>441.382446</ele>
                <time>2004-12-11T10:03:49Z</time>
            </trkpt>
            <trkpt lon="101.383252" lat="14.598641">
                <ele>435.133911</ele>
                <time>2004-12-11T10:04:08Z</time>
            </trkpt>
            <trkpt lon="101.384583" lat="14.598749">
                <ele>428.885376</ele>
                <time>2004-12-11T10:04:27Z</time>
            </trkpt>
            <trkpt lon="101.385870" lat="14.598749">
                <ele>427.923950</ele>
                <time>2004-12-11T10:04:45Z</time>
            </trkpt>
            <trkpt lon="101.387522" lat="14.598770">
                <ele>430.327271</ele>
                <time>2004-12-11T10:05:08Z</time>
            </trkpt>
            <trkpt lon="101.388531" lat="14.598727">
                <ele>428.885376</ele>
                <time>2004-12-11T10:05:23Z</time>
            </trkpt>
            <trkpt lon="101.389153" lat="14.598534">
                <ele>427.923950</ele>
                <time>2004-12-11T10:05:36Z</time>
            </trkpt>
            <trkpt lon="101.389925" lat="14.598277">
                <ele>428.404663</ele>
                <time>2004-12-11T10:05:54Z</time>
            </trkpt>
            <trkpt lon="101.390998" lat="14.597912">
                <ele>426.962769</ele>
                <time>2004-12-11T10:06:12Z</time>
            </trkpt>
            <trkpt lon="101.392329" lat="14.597461">
                <ele>422.156006</ele>
                <time>2004-12-11T10:06:31Z</time>
            </trkpt>
            <trkpt lon="101.392801" lat="14.597311">
                <ele>421.675415</ele>
                <time>2004-12-11T10:06:39Z</time>
            </trkpt>
            <trkpt lon="101.392951" lat="14.597440">
                <ele>421.675415</ele>
                <time>2004-12-11T10:06:44Z</time>
            </trkpt>
            <trkpt lon="101.393359" lat="14.598491">
                <ele>420.233398</ele>
                <time>2004-12-11T10:07:01Z</time>
            </trkpt>
            <trkpt lon="101.394002" lat="14.599907">
                <ele>413.504272</ele>
                <time>2004-12-11T10:07:21Z</time>
            </trkpt>
            <trkpt lon="101.394775" lat="14.600551">
                <ele>409.659058</ele>
                <time>2004-12-11T10:07:34Z</time>
            </trkpt>
            <trkpt lon="101.396341" lat="14.601388">
                <ele>407.255615</ele>
                <time>2004-12-11T10:07:57Z</time>
            </trkpt>
            <trkpt lon="101.397092" lat="14.602118">
                <ele>403.891113</ele>
                <time>2004-12-11T10:08:10Z</time>
            </trkpt>
            <trkpt lon="101.398058" lat="14.603512">
                <ele>401.007080</ele>
                <time>2004-12-11T10:08:33Z</time>
            </trkpt>
            <trkpt lon="101.398745" lat="14.604499">
                <ele>402.929688</ele>
                <time>2004-12-11T10:08:52Z</time>
            </trkpt>
            <trkpt lon="101.399324" lat="14.605379">
                <ele>401.487793</ele>
                <time>2004-12-11T10:09:09Z</time>
            </trkpt>
            <trkpt lon="101.400075" lat="14.606473">
                <ele>401.007080</ele>
                <time>2004-12-11T10:09:28Z</time>
            </trkpt>
            <trkpt lon="101.401191" lat="14.608104">
                <ele>397.161743</ele>
                <time>2004-12-11T10:09:55Z</time>
            </trkpt>
            <trkpt lon="101.402178" lat="14.609520">
                <ele>394.758545</ele>
                <time>2004-12-11T10:10:16Z</time>
            </trkpt>
            <trkpt lon="101.403401" lat="14.611280">
                <ele>387.548584</ele>
                <time>2004-12-11T10:10:42Z</time>
            </trkpt>
            <trkpt lon="101.404474" lat="14.613082">
                <ele>390.432617</ele>
                <time>2004-12-11T10:11:08Z</time>
            </trkpt>
            <trkpt lon="101.404645" lat="14.613469">
                <ele>388.990601</ele>
                <time>2004-12-11T10:11:16Z</time>
            </trkpt>
            <trkpt lon="101.404517" lat="14.613554">
                <ele>389.471191</ele>
                <time>2004-12-11T10:11:22Z</time>
            </trkpt>
            <trkpt lon="101.403852" lat="14.613919">
                <ele>385.625977</ele>
                <time>2004-12-11T10:11:42Z</time>
            </trkpt>
            <trkpt lon="101.403551" lat="14.614348">
                <ele>388.990601</ele>
                <time>2004-12-11T10:12:00Z</time>
            </trkpt>
            <trkpt lon="101.403401" lat="14.614713">
                <ele>390.913208</ele>
                <time>2004-12-11T10:12:16Z</time>
            </trkpt>
            <trkpt lon="101.403401" lat="14.614713">
                <ele>386.106689</ele>
                <time>2004-12-11T10:12:39Z</time>
            </trkpt>
            <trkpt lon="101.403401" lat="14.614735">
                <ele>385.145386</ele>
                <time>2004-12-11T10:13:37Z</time>
            </trkpt>
            <trkpt lon="101.403315" lat="14.614820">
                <ele>386.587402</ele>
                <time>2004-12-11T10:13:44Z</time>
            </trkpt>
            <trkpt lon="101.403079" lat="14.615335">
                <ele>385.145386</ele>
                <time>2004-12-11T10:14:02Z</time>
            </trkpt>
            <trkpt lon="101.402714" lat="14.616086">
                <ele>386.106689</ele>
                <time>2004-12-11T10:14:24Z</time>
            </trkpt>
            <trkpt lon="101.402178" lat="14.616923">
                <ele>385.625977</ele>
                <time>2004-12-11T10:14:48Z</time>
            </trkpt>
            <trkpt lon="101.401985" lat="14.617395">
                <ele>386.587402</ele>
                <time>2004-12-11T10:15:02Z</time>
            </trkpt>
            <trkpt lon="101.401813" lat="14.617910">
                <ele>388.029297</ele>
                <time>2004-12-11T10:15:19Z</time>
            </trkpt>
            <trkpt lon="101.401620" lat="14.618318">
                <ele>391.874512</ele>
                <time>2004-12-11T10:15:38Z</time>
            </trkpt>
            <trkpt lon="101.401362" lat="14.618533">
                <ele>393.797241</ele>
                <time>2004-12-11T10:15:51Z</time>
            </trkpt>
            <trkpt lon="101.401341" lat="14.618533">
                <ele>395.719849</ele>
                <time>2004-12-11T10:16:03Z</time>
            </trkpt>
            <trkpt lon="101.401341" lat="14.618511">
                <ele>395.719849</ele>
                <time>2004-12-11T10:16:39Z</time>
            </trkpt>
            <trkpt lon="101.401277" lat="14.618576">
                <ele>394.758545</ele>
                <time>2004-12-11T10:16:43Z</time>
            </trkpt>
            <trkpt lon="101.400783" lat="14.619069">
                <ele>393.316528</ele>
                <time>2004-12-11T10:17:00Z</time>
            </trkpt>
            <trkpt lon="101.400247" lat="14.619584">
                <ele>395.239136</ele>
                <time>2004-12-11T10:17:17Z</time>
            </trkpt>
            <trkpt lon="101.399796" lat="14.620206">
                <ele>395.719849</ele>
                <time>2004-12-11T10:17:37Z</time>
            </trkpt>
            <trkpt lon="101.399603" lat="14.620829">
                <ele>394.758545</ele>
                <time>2004-12-11T10:17:58Z</time>
            </trkpt>
            <trkpt lon="101.399560" lat="14.621451">
                <ele>397.642456</ele>
                <time>2004-12-11T10:18:19Z</time>
            </trkpt>
            <trkpt lon="101.399453" lat="14.621987">
                <ele>399.565063</ele>
                <time>2004-12-11T10:18:39Z</time>
            </trkpt>
            <trkpt lon="101.399260" lat="14.622331">
                <ele>401.968506</ele>
                <time>2004-12-11T10:18:53Z</time>
            </trkpt>
            <trkpt lon="101.398702" lat="14.622674">
                <ele>404.371704</ele>
                <time>2004-12-11T10:19:11Z</time>
            </trkpt>
            <trkpt lon="101.398036" lat="14.623125">
                <ele>405.813721</ele>
                <time>2004-12-11T10:19:30Z</time>
            </trkpt>
            <trkpt lon="101.397607" lat="14.623361">
                <ele>406.774902</ele>
                <time>2004-12-11T10:19:42Z</time>
            </trkpt>
            <trkpt lon="101.396942" lat="14.623768">
                <ele>408.697632</ele>
                <time>2004-12-11T10:19:59Z</time>
            </trkpt>
            <trkpt lon="101.396556" lat="14.624197">
                <ele>407.736328</ele>
                <time>2004-12-11T10:20:16Z</time>
            </trkpt>
            <trkpt lon="101.396470" lat="14.624369">
                <ele>408.697632</ele>
                <time>2004-12-11T10:20:28Z</time>
            </trkpt>
            <trkpt lon="101.396427" lat="14.624519">
                <ele>402.929688</ele>
                <time>2004-12-11T10:21:15Z</time>
            </trkpt>
            <trkpt lon="101.396277" lat="14.624562">
                <ele>402.929688</ele>
                <time>2004-12-11T10:21:19Z</time>
            </trkpt>
            <trkpt lon="101.396105" lat="14.624562">
                <ele>402.929688</ele>
                <time>2004-12-11T10:21:23Z</time>
            </trkpt>
            <trkpt lon="101.395247" lat="14.624219">
                <ele>407.736328</ele>
                <time>2004-12-11T10:21:45Z</time>
            </trkpt>
            <trkpt lon="101.394410" lat="14.623854">
                <ele>406.774902</ele>
                <time>2004-12-11T10:22:09Z</time>
            </trkpt>
            <trkpt lon="101.394453" lat="14.623597">
                <ele>411.100952</ele>
                <time>2004-12-11T10:22:19Z</time>
            </trkpt>
            <trkpt lon="101.394689" lat="14.623168">
                <ele>412.062256</ele>
                <time>2004-12-11T10:22:31Z</time>
            </trkpt>
            <trkpt lon="101.394582" lat="14.622889">
                <ele>412.062256</ele>
                <time>2004-12-11T10:22:40Z</time>
            </trkpt>
            <trkpt lon="101.394560" lat="14.622867">
                <ele>412.062256</ele>
                <time>2004-12-11T10:22:41Z</time>
            </trkpt>
            <trkpt lon="101.394045" lat="14.622760">
                <ele>413.984863</ele>
                <time>2004-12-11T10:23:01Z</time>
            </trkpt>
            <trkpt lon="101.393723" lat="14.622717">
                <ele>417.830200</ele>
                <time>2004-12-11T10:23:16Z</time>
            </trkpt>
            <trkpt lon="101.393209" lat="14.622610">
                <ele>422.156006</ele>
                <time>2004-12-11T10:23:34Z</time>
            </trkpt>
            <trkpt lon="101.392822" lat="14.622524">
                <ele>421.194824</ele>
                <time>2004-12-11T10:23:49Z</time>
            </trkpt>
            <trkpt lon="101.392221" lat="14.622416">
                <ele>421.675415</ele>
                <time>2004-12-11T10:24:06Z</time>
            </trkpt>
            <trkpt lon="101.391406" lat="14.622459">
                <ele>418.791504</ele>
                <time>2004-12-11T10:24:21Z</time>
            </trkpt>
            <trkpt lon="101.389925" lat="14.622567">
                <ele>418.791504</ele>
                <time>2004-12-11T10:24:46Z</time>
            </trkpt>
            <trkpt lon="101.388724" lat="14.622631">
                <ele>418.310791</ele>
                <time>2004-12-11T10:25:08Z</time>
            </trkpt>
            <trkpt lon="101.387994" lat="14.622695">
                <ele>418.791504</ele>
                <time>2004-12-11T10:25:27Z</time>
            </trkpt>
            <trkpt lon="101.387136" lat="14.622760">
                <ele>420.714111</ele>
                <time>2004-12-11T10:25:48Z</time>
            </trkpt>
            <trkpt lon="101.387050" lat="14.622781">
                <ele>420.714111</ele>
                <time>2004-12-11T10:25:50Z</time>
            </trkpt>
            <trkpt lon="101.386321" lat="14.622803">
                <ele>427.443359</ele>
                <time>2004-12-11T10:26:08Z</time>
            </trkpt>
            <trkpt lon="101.385634" lat="14.622867">
                <ele>426.482056</ele>
                <time>2004-12-11T10:26:26Z</time>
            </trkpt>
            <trkpt lon="101.385548" lat="14.622717">
                <ele>427.443359</ele>
                <time>2004-12-11T10:26:31Z</time>
            </trkpt>
            <trkpt lon="101.385484" lat="14.621923">
                <ele>429.365967</ele>
                <time>2004-12-11T10:26:51Z</time>
            </trkpt>
            <trkpt lon="101.385419" lat="14.621344">
                <ele>430.807983</ele>
                <time>2004-12-11T10:27:10Z</time>
            </trkpt>
            <trkpt lon="101.385376" lat="14.620807">
                <ele>432.250000</ele>
                <time>2004-12-11T10:27:30Z</time>
            </trkpt>
            <trkpt lon="101.385612" lat="14.620743">
                <ele>432.250000</ele>
                <time>2004-12-11T10:27:39Z</time>
            </trkpt>
            <trkpt lon="101.386364" lat="14.620743">
                <ele>432.250000</ele>
                <time>2004-12-11T10:27:57Z</time>
            </trkpt>
            <trkpt lon="101.387050" lat="14.620678">
                <ele>434.653320</ele>
                <time>2004-12-11T10:28:16Z</time>
            </trkpt>
            <trkpt lon="101.387157" lat="14.620829">
                <ele>433.211304</ele>
                <time>2004-12-11T10:28:31Z</time>
            </trkpt>
            <trkpt lon="101.387093" lat="14.620979">
                <ele>431.769165</ele>
                <time>2004-12-11T10:31:32Z</time>
            </trkpt>
        </trkseg>
    </trk>
</gpx>